<?xml version="1.0" encoding="UTF-8" standalone="no" ?>
<gpx xmlns="http://www.topografix.com/GPX/1/1" xmlns:xsi="http://www.w3.org/2001/XMLSchema-instance" xsi:schemaLocation="http://www.topografix.com/GPX/1/1 http://www.topografix.com/GPX/1/1/gpx.xsd" version="1.1" creator="VisuGPX - https://www.visugpx.com">
  <metadata>
    <name>landrecies walincourt</name>
    <desc><![CDATA[Parcours du 18 mai.
rencontre avec Dany entre Troisville et chaussée brunehaut]]></desc>
  </metadata>
  <trk>
    <name><![CDATA[2014-05-18 LAN WAL]]></name>
    <trkseg>
      <trkpt lat="50.12477" lon="3.67826">
        <ele>174.62</ele>
        <time>2014-05-18T07:19:48Z</time>
      </trkpt>
      <trkpt lat="50.12477" lon="3.67826">
        <ele>174.62</ele>
        <time>2014-05-18T07:19:49Z</time>
      </trkpt>
      <trkpt lat="50.12477" lon="3.67827">
        <ele>141.93</ele>
        <time>2014-05-18T07:19:53Z</time>
      </trkpt>
      <trkpt lat="50.12477" lon="3.67827">
        <ele>141.93</ele>
        <time>2014-05-18T07:19:57Z</time>
      </trkpt>
      <trkpt lat="50.12479" lon="3.67824">
        <ele>141.93</ele>
        <time>2014-05-18T07:20:21Z</time>
      </trkpt>
      <trkpt lat="50.12479" lon="3.67823">
        <ele>141.93</ele>
        <time>2014-05-18T07:20:27Z</time>
      </trkpt>
      <trkpt lat="50.12476" lon="3.67817">
        <ele>141.93</ele>
        <time>2014-05-18T07:20:31Z</time>
      </trkpt>
      <trkpt lat="50.12476" lon="3.67805">
        <ele>142.41</ele>
        <time>2014-05-18T07:20:36Z</time>
      </trkpt>
      <trkpt lat="50.12474" lon="3.67803">
        <ele>142.41</ele>
        <time>2014-05-18T07:20:37Z</time>
      </trkpt>
      <trkpt lat="50.12472" lon="3.67801">
        <ele>142.41</ele>
        <time>2014-05-18T07:20:38Z</time>
      </trkpt>
      <trkpt lat="50.1247" lon="3.678">
        <ele>142.41</ele>
        <time>2014-05-18T07:20:39Z</time>
      </trkpt>
      <trkpt lat="50.12466" lon="3.678">
        <ele>142.41</ele>
        <time>2014-05-18T07:20:40Z</time>
      </trkpt>
      <trkpt lat="50.12463" lon="3.67801">
        <ele>142.41</ele>
        <time>2014-05-18T07:20:41Z</time>
      </trkpt>
      <trkpt lat="50.1246" lon="3.67803">
        <ele>142.41</ele>
        <time>2014-05-18T07:20:42Z</time>
      </trkpt>
      <trkpt lat="50.12424" lon="3.67829">
        <ele>142.41</ele>
        <time>2014-05-18T07:20:54Z</time>
      </trkpt>
      <trkpt lat="50.12376" lon="3.67877">
        <ele>142.41</ele>
        <time>2014-05-18T07:21:09Z</time>
      </trkpt>
      <trkpt lat="50.12345" lon="3.67912">
        <ele>142.41</ele>
        <time>2014-05-18T07:21:20Z</time>
      </trkpt>
      <trkpt lat="50.1233" lon="3.67928">
        <ele>142.41</ele>
        <time>2014-05-18T07:21:26Z</time>
      </trkpt>
      <trkpt lat="50.12333" lon="3.67949">
        <ele>142.41</ele>
        <time>2014-05-18T07:21:31Z</time>
      </trkpt>
      <trkpt lat="50.12335" lon="3.68012">
        <ele>142.41</ele>
        <time>2014-05-18T07:21:43Z</time>
      </trkpt>
      <trkpt lat="50.12326" lon="3.68058">
        <ele>142.41</ele>
        <time>2014-05-18T07:21:51Z</time>
      </trkpt>
      <trkpt lat="50.1231" lon="3.68148">
        <ele>142.41</ele>
        <time>2014-05-18T07:22:06Z</time>
      </trkpt>
      <trkpt lat="50.12298" lon="3.68199">
        <ele>142.41</ele>
        <time>2014-05-18T07:22:15Z</time>
      </trkpt>
      <trkpt lat="50.12283" lon="3.68207">
        <ele>143.37</ele>
        <time>2014-05-18T07:22:21Z</time>
      </trkpt>
      <trkpt lat="50.12282" lon="3.68205">
        <ele>143.37</ele>
        <time>2014-05-18T07:22:22Z</time>
      </trkpt>
      <trkpt lat="50.1228" lon="3.68203">
        <ele>143.85</ele>
        <time>2014-05-18T07:22:23Z</time>
      </trkpt>
      <trkpt lat="50.12278" lon="3.68201">
        <ele>143.85</ele>
        <time>2014-05-18T07:22:24Z</time>
      </trkpt>
      <trkpt lat="50.12276" lon="3.68198">
        <ele>144.34</ele>
        <time>2014-05-18T07:22:25Z</time>
      </trkpt>
      <trkpt lat="50.12244" lon="3.68153">
        <ele>142.89</ele>
        <time>2014-05-18T07:22:38Z</time>
      </trkpt>
      <trkpt lat="50.12212" lon="3.6811">
        <ele>142.89</ele>
        <time>2014-05-18T07:22:51Z</time>
      </trkpt>
      <trkpt lat="50.12176" lon="3.68062">
        <ele>142.89</ele>
        <time>2014-05-18T07:23:03Z</time>
      </trkpt>
      <trkpt lat="50.12107" lon="3.6797">
        <ele>142.89</ele>
        <time>2014-05-18T07:23:24Z</time>
      </trkpt>
      <trkpt lat="50.12091" lon="3.6795">
        <ele>142.89</ele>
        <time>2014-05-18T07:23:29Z</time>
      </trkpt>
      <trkpt lat="50.12078" lon="3.67933">
        <ele>144.34</ele>
        <time>2014-05-18T07:23:33Z</time>
      </trkpt>
      <trkpt lat="50.12062" lon="3.67911">
        <ele>142.89</ele>
        <time>2014-05-18T07:23:38Z</time>
      </trkpt>
      <trkpt lat="50.12058" lon="3.67906">
        <ele>142.89</ele>
        <time>2014-05-18T07:23:39Z</time>
      </trkpt>
      <trkpt lat="50.12039" lon="3.6788">
        <ele>142.89</ele>
        <time>2014-05-18T07:23:45Z</time>
      </trkpt>
      <trkpt lat="50.12033" lon="3.6787">
        <ele>142.89</ele>
        <time>2014-05-18T07:23:47Z</time>
      </trkpt>
      <trkpt lat="50.1201" lon="3.67838">
        <ele>142.89</ele>
        <time>2014-05-18T07:23:54Z</time>
      </trkpt>
      <trkpt lat="50.12007" lon="3.67833">
        <ele>142.89</ele>
        <time>2014-05-18T07:23:55Z</time>
      </trkpt>
      <trkpt lat="50.12004" lon="3.67829">
        <ele>142.89</ele>
        <time>2014-05-18T07:23:56Z</time>
      </trkpt>
      <trkpt lat="50.11944" lon="3.6775">
        <ele>142.41</ele>
        <time>2014-05-18T07:24:14Z</time>
      </trkpt>
      <trkpt lat="50.1189" lon="3.67678">
        <ele>142.41</ele>
        <time>2014-05-18T07:24:30Z</time>
      </trkpt>
      <trkpt lat="50.11884" lon="3.6767">
        <ele>142.41</ele>
        <time>2014-05-18T07:24:32Z</time>
      </trkpt>
      <trkpt lat="50.11877" lon="3.67661">
        <ele>142.41</ele>
        <time>2014-05-18T07:24:34Z</time>
      </trkpt>
      <trkpt lat="50.11812" lon="3.67574">
        <ele>141.93</ele>
        <time>2014-05-18T07:24:52Z</time>
      </trkpt>
      <trkpt lat="50.11748" lon="3.67484">
        <ele>141.93</ele>
        <time>2014-05-18T07:25:10Z</time>
      </trkpt>
      <trkpt lat="50.11704" lon="3.67425">
        <ele>143.37</ele>
        <time>2014-05-18T07:25:22Z</time>
      </trkpt>
      <trkpt lat="50.11661" lon="3.67366">
        <ele>142.89</ele>
        <time>2014-05-18T07:25:38Z</time>
      </trkpt>
      <trkpt lat="50.11661" lon="3.67366">
        <ele>142.89</ele>
        <time>2014-05-18T07:25:57Z</time>
      </trkpt>
      <trkpt lat="50.11662" lon="3.67366">
        <ele>142.89</ele>
        <time>2014-05-18T07:26:29Z</time>
      </trkpt>
      <trkpt lat="50.1165" lon="3.67351">
        <ele>142.89</ele>
        <time>2014-05-18T07:26:52Z</time>
      </trkpt>
      <trkpt lat="50.11621" lon="3.67312">
        <ele>142.89</ele>
        <time>2014-05-18T07:27:02Z</time>
      </trkpt>
      <trkpt lat="50.11617" lon="3.67308">
        <ele>142.89</ele>
        <time>2014-05-18T07:27:03Z</time>
      </trkpt>
      <trkpt lat="50.11556" lon="3.67224">
        <ele>142.89</ele>
        <time>2014-05-18T07:27:20Z</time>
      </trkpt>
      <trkpt lat="50.11521" lon="3.67175">
        <ele>142.89</ele>
        <time>2014-05-18T07:27:29Z</time>
      </trkpt>
      <trkpt lat="50.11451" lon="3.67079">
        <ele>142.89</ele>
        <time>2014-05-18T07:27:47Z</time>
      </trkpt>
      <trkpt lat="50.1141" lon="3.67023">
        <ele>142.89</ele>
        <time>2014-05-18T07:27:58Z</time>
      </trkpt>
      <trkpt lat="50.1138" lon="3.66981">
        <ele>142.89</ele>
        <time>2014-05-18T07:28:08Z</time>
      </trkpt>
      <trkpt lat="50.11377" lon="3.66977">
        <ele>142.89</ele>
        <time>2014-05-18T07:28:09Z</time>
      </trkpt>
      <trkpt lat="50.1134" lon="3.6693">
        <ele>142.89</ele>
        <time>2014-05-18T07:28:21Z</time>
      </trkpt>
      <trkpt lat="50.1128" lon="3.6684">
        <ele>142.89</ele>
        <time>2014-05-18T07:28:39Z</time>
      </trkpt>
      <trkpt lat="50.11261" lon="3.66802">
        <ele>142.89</ele>
        <time>2014-05-18T07:28:46Z</time>
      </trkpt>
      <trkpt lat="50.11222" lon="3.66704">
        <ele>142.41</ele>
        <time>2014-05-18T07:29:02Z</time>
      </trkpt>
      <trkpt lat="50.11179" lon="3.66596">
        <ele>142.41</ele>
        <time>2014-05-18T07:29:18Z</time>
      </trkpt>
      <trkpt lat="50.11131" lon="3.66478">
        <ele>142.41</ele>
        <time>2014-05-18T07:29:35Z</time>
      </trkpt>
      <trkpt lat="50.11081" lon="3.66339">
        <ele>142.41</ele>
        <time>2014-05-18T07:29:55Z</time>
      </trkpt>
      <trkpt lat="50.1108" lon="3.66218">
        <ele>142.41</ele>
        <time>2014-05-18T07:30:10Z</time>
      </trkpt>
      <trkpt lat="50.11101" lon="3.66153">
        <ele>142.41</ele>
        <time>2014-05-18T07:30:19Z</time>
      </trkpt>
      <trkpt lat="50.1115" lon="3.66052">
        <ele>142.89</ele>
        <time>2014-05-18T07:30:36Z</time>
      </trkpt>
      <trkpt lat="50.11194" lon="3.65961">
        <ele>142.89</ele>
        <time>2014-05-18T07:30:51Z</time>
      </trkpt>
      <trkpt lat="50.11253" lon="3.65837">
        <ele>142.89</ele>
        <time>2014-05-18T07:31:11Z</time>
      </trkpt>
      <trkpt lat="50.11308" lon="3.65724">
        <ele>142.41</ele>
        <time>2014-05-18T07:31:30Z</time>
      </trkpt>
      <trkpt lat="50.11355" lon="3.65626">
        <ele>142.41</ele>
        <time>2014-05-18T07:31:48Z</time>
      </trkpt>
      <trkpt lat="50.11396" lon="3.65542">
        <ele>142.41</ele>
        <time>2014-05-18T07:32:02Z</time>
      </trkpt>
      <trkpt lat="50.11419" lon="3.65434">
        <ele>142.41</ele>
        <time>2014-05-18T07:32:17Z</time>
      </trkpt>
      <trkpt lat="50.11401" lon="3.6531">
        <ele>142.41</ele>
        <time>2014-05-18T07:32:33Z</time>
      </trkpt>
      <trkpt lat="50.11344" lon="3.65188">
        <ele>142.89</ele>
        <time>2014-05-18T07:32:51Z</time>
      </trkpt>
      <trkpt lat="50.11317" lon="3.65146">
        <ele>142.89</ele>
        <time>2014-05-18T07:32:58Z</time>
      </trkpt>
      <trkpt lat="50.11249" lon="3.65031">
        <ele>142.89</ele>
        <time>2014-05-18T07:33:15Z</time>
      </trkpt>
      <trkpt lat="50.11175" lon="3.64909">
        <ele>142.89</ele>
        <time>2014-05-18T07:33:34Z</time>
      </trkpt>
      <trkpt lat="50.11101" lon="3.64789">
        <ele>142.89</ele>
        <time>2014-05-18T07:33:53Z</time>
      </trkpt>
      <trkpt lat="50.11035" lon="3.64689">
        <ele>142.89</ele>
        <time>2014-05-18T07:34:09Z</time>
      </trkpt>
      <trkpt lat="50.1095" lon="3.64616">
        <ele>142.41</ele>
        <time>2014-05-18T07:34:26Z</time>
      </trkpt>
      <trkpt lat="50.1086" lon="3.64537">
        <ele>142.41</ele>
        <time>2014-05-18T07:34:45Z</time>
      </trkpt>
      <trkpt lat="50.10763" lon="3.64454">
        <ele>142.41</ele>
        <time>2014-05-18T07:35:06Z</time>
      </trkpt>
      <trkpt lat="50.10729" lon="3.64421">
        <ele>142.41</ele>
        <time>2014-05-18T07:35:15Z</time>
      </trkpt>
      <trkpt lat="50.10746" lon="3.6436">
        <ele>140.49</ele>
        <time>2014-05-18T07:35:23Z</time>
      </trkpt>
      <trkpt lat="50.10749" lon="3.6434">
        <ele>141.93</ele>
        <time>2014-05-18T07:35:26Z</time>
      </trkpt>
      <trkpt lat="50.10756" lon="3.64284">
        <ele>142.41</ele>
        <time>2014-05-18T07:35:35Z</time>
      </trkpt>
      <trkpt lat="50.10769" lon="3.64285">
        <ele>142.41</ele>
        <time>2014-05-18T07:35:40Z</time>
      </trkpt>
      <trkpt lat="50.108" lon="3.64284">
        <ele>142.41</ele>
        <time>2014-05-18T07:35:48Z</time>
      </trkpt>
      <trkpt lat="50.10808" lon="3.64289">
        <ele>142.41</ele>
        <time>2014-05-18T07:35:50Z</time>
      </trkpt>
      <trkpt lat="50.10821" lon="3.64282">
        <ele>142.41</ele>
        <time>2014-05-18T07:35:57Z</time>
      </trkpt>
      <trkpt lat="50.1082" lon="3.64277">
        <ele>141.45</ele>
        <time>2014-05-18T07:35:58Z</time>
      </trkpt>
      <trkpt lat="50.10806" lon="3.64183">
        <ele>141.45</ele>
        <time>2014-05-18T07:36:14Z</time>
      </trkpt>
      <trkpt lat="50.10803" lon="3.64092">
        <ele>141.45</ele>
        <time>2014-05-18T07:36:29Z</time>
      </trkpt>
      <trkpt lat="50.10815" lon="3.64006">
        <ele>141.45</ele>
        <time>2014-05-18T07:36:44Z</time>
      </trkpt>
      <trkpt lat="50.1083" lon="3.63912">
        <ele>141.45</ele>
        <time>2014-05-18T07:37:01Z</time>
      </trkpt>
      <trkpt lat="50.10832" lon="3.639">
        <ele>141.45</ele>
        <time>2014-05-18T07:37:04Z</time>
      </trkpt>
      <trkpt lat="50.10831" lon="3.6389">
        <ele>141.45</ele>
        <time>2014-05-18T07:37:09Z</time>
      </trkpt>
      <trkpt lat="50.10842" lon="3.63879">
        <ele>140.97</ele>
        <time>2014-05-18T07:37:14Z</time>
      </trkpt>
      <trkpt lat="50.10846" lon="3.63876">
        <ele>140.97</ele>
        <time>2014-05-18T07:37:15Z</time>
      </trkpt>
      <trkpt lat="50.10871" lon="3.63865">
        <ele>142.41</ele>
        <time>2014-05-18T07:37:23Z</time>
      </trkpt>
      <trkpt lat="50.10917" lon="3.63839">
        <ele>145.3</ele>
        <time>2014-05-18T07:37:39Z</time>
      </trkpt>
      <trkpt lat="50.10956" lon="3.6382">
        <ele>147.22</ele>
        <time>2014-05-18T07:37:54Z</time>
      </trkpt>
      <trkpt lat="50.10956" lon="3.63816">
        <ele>147.22</ele>
        <time>2014-05-18T07:37:55Z</time>
      </trkpt>
      <trkpt lat="50.10955" lon="3.6381">
        <ele>147.22</ele>
        <time>2014-05-18T07:37:56Z</time>
      </trkpt>
      <trkpt lat="50.10953" lon="3.63804">
        <ele>147.22</ele>
        <time>2014-05-18T07:37:57Z</time>
      </trkpt>
      <trkpt lat="50.10951" lon="3.63797">
        <ele>145.78</ele>
        <time>2014-05-18T07:37:58Z</time>
      </trkpt>
      <trkpt lat="50.10947" lon="3.6379">
        <ele>145.78</ele>
        <time>2014-05-18T07:37:59Z</time>
      </trkpt>
      <trkpt lat="50.10898" lon="3.63685">
        <ele>142.89</ele>
        <time>2014-05-18T07:38:13Z</time>
      </trkpt>
      <trkpt lat="50.10854" lon="3.63601">
        <ele>142.41</ele>
        <time>2014-05-18T07:38:25Z</time>
      </trkpt>
      <trkpt lat="50.1085" lon="3.63595">
        <ele>142.41</ele>
        <time>2014-05-18T07:38:26Z</time>
      </trkpt>
      <trkpt lat="50.10818" lon="3.63541">
        <ele>143.85</ele>
        <time>2014-05-18T07:38:35Z</time>
      </trkpt>
      <trkpt lat="50.10756" lon="3.63437">
        <ele>146.74</ele>
        <time>2014-05-18T07:38:53Z</time>
      </trkpt>
      <trkpt lat="50.10702" lon="3.63338">
        <ele>149.62</ele>
        <time>2014-05-18T07:39:11Z</time>
      </trkpt>
      <trkpt lat="50.10687" lon="3.63312">
        <ele>150.1</ele>
        <time>2014-05-18T07:39:16Z</time>
      </trkpt>
      <trkpt lat="50.10645" lon="3.63236">
        <ele>151.06</ele>
        <time>2014-05-18T07:39:31Z</time>
      </trkpt>
      <trkpt lat="50.10635" lon="3.6322">
        <ele>151.06</ele>
        <time>2014-05-18T07:39:34Z</time>
      </trkpt>
      <trkpt lat="50.10633" lon="3.63214">
        <ele>150.58</ele>
        <time>2014-05-18T07:39:35Z</time>
      </trkpt>
      <trkpt lat="50.1063" lon="3.63208">
        <ele>150.58</ele>
        <time>2014-05-18T07:39:36Z</time>
      </trkpt>
      <trkpt lat="50.10627" lon="3.63202">
        <ele>150.58</ele>
        <time>2014-05-18T07:39:37Z</time>
      </trkpt>
      <trkpt lat="50.10624" lon="3.63197">
        <ele>150.58</ele>
        <time>2014-05-18T07:39:38Z</time>
      </trkpt>
      <trkpt lat="50.10571" lon="3.63101">
        <ele>150.58</ele>
        <time>2014-05-18T07:39:54Z</time>
      </trkpt>
      <trkpt lat="50.10533" lon="3.63033">
        <ele>150.58</ele>
        <time>2014-05-18T07:40:05Z</time>
      </trkpt>
      <trkpt lat="50.10506" lon="3.62988">
        <ele>150.58</ele>
        <time>2014-05-18T07:40:12Z</time>
      </trkpt>
      <trkpt lat="50.10503" lon="3.62981">
        <ele>150.58</ele>
        <time>2014-05-18T07:40:13Z</time>
      </trkpt>
      <trkpt lat="50.10469" lon="3.6292">
        <ele>150.58</ele>
        <time>2014-05-18T07:40:22Z</time>
      </trkpt>
      <trkpt lat="50.10424" lon="3.62826">
        <ele>152.03</ele>
        <time>2014-05-18T07:40:37Z</time>
      </trkpt>
      <trkpt lat="50.10418" lon="3.62814">
        <ele>152.03</ele>
        <time>2014-05-18T07:40:39Z</time>
      </trkpt>
      <trkpt lat="50.10415" lon="3.62808">
        <ele>152.03</ele>
        <time>2014-05-18T07:40:40Z</time>
      </trkpt>
      <trkpt lat="50.10409" lon="3.62797">
        <ele>152.03</ele>
        <time>2014-05-18T07:40:42Z</time>
      </trkpt>
      <trkpt lat="50.10406" lon="3.62791">
        <ele>152.03</ele>
        <time>2014-05-18T07:40:43Z</time>
      </trkpt>
      <trkpt lat="50.10403" lon="3.62785">
        <ele>152.03</ele>
        <time>2014-05-18T07:40:44Z</time>
      </trkpt>
      <trkpt lat="50.104" lon="3.62779">
        <ele>152.03</ele>
        <time>2014-05-18T07:40:45Z</time>
      </trkpt>
      <trkpt lat="50.10397" lon="3.62774">
        <ele>152.03</ele>
        <time>2014-05-18T07:40:46Z</time>
      </trkpt>
      <trkpt lat="50.10361" lon="3.62699">
        <ele>152.51</ele>
        <time>2014-05-18T07:40:59Z</time>
      </trkpt>
      <trkpt lat="50.10358" lon="3.62693">
        <ele>152.51</ele>
        <time>2014-05-18T07:41:00Z</time>
      </trkpt>
      <trkpt lat="50.10354" lon="3.62687">
        <ele>151.06</ele>
        <time>2014-05-18T07:41:01Z</time>
      </trkpt>
      <trkpt lat="50.10347" lon="3.62674">
        <ele>150.58</ele>
        <time>2014-05-18T07:41:03Z</time>
      </trkpt>
      <trkpt lat="50.10339" lon="3.6266">
        <ele>150.1</ele>
        <time>2014-05-18T07:41:05Z</time>
      </trkpt>
      <trkpt lat="50.10335" lon="3.62655">
        <ele>150.1</ele>
        <time>2014-05-18T07:41:06Z</time>
      </trkpt>
      <trkpt lat="50.10321" lon="3.62639">
        <ele>150.1</ele>
        <time>2014-05-18T07:41:09Z</time>
      </trkpt>
      <trkpt lat="50.10262" lon="3.62548">
        <ele>150.1</ele>
        <time>2014-05-18T07:41:24Z</time>
      </trkpt>
      <trkpt lat="50.10191" lon="3.62419">
        <ele>150.1</ele>
        <time>2014-05-18T07:41:44Z</time>
      </trkpt>
      <trkpt lat="50.10159" lon="3.62362">
        <ele>150.1</ele>
        <time>2014-05-18T07:41:53Z</time>
      </trkpt>
      <trkpt lat="50.10108" lon="3.6226">
        <ele>150.1</ele>
        <time>2014-05-18T07:42:08Z</time>
      </trkpt>
      <trkpt lat="50.10105" lon="3.62253">
        <ele>150.1</ele>
        <time>2014-05-18T07:42:09Z</time>
      </trkpt>
      <trkpt lat="50.10104" lon="3.62245">
        <ele>150.1</ele>
        <time>2014-05-18T07:42:10Z</time>
      </trkpt>
      <trkpt lat="50.10103" lon="3.62237">
        <ele>150.1</ele>
        <time>2014-05-18T07:42:11Z</time>
      </trkpt>
      <trkpt lat="50.10102" lon="3.62228">
        <ele>150.1</ele>
        <time>2014-05-18T07:42:12Z</time>
      </trkpt>
      <trkpt lat="50.10103" lon="3.6222">
        <ele>150.1</ele>
        <time>2014-05-18T07:42:13Z</time>
      </trkpt>
      <trkpt lat="50.10104" lon="3.62212">
        <ele>150.1</ele>
        <time>2014-05-18T07:42:14Z</time>
      </trkpt>
      <trkpt lat="50.10104" lon="3.62196">
        <ele>150.1</ele>
        <time>2014-05-18T07:42:16Z</time>
      </trkpt>
      <trkpt lat="50.10104" lon="3.62188">
        <ele>150.1</ele>
        <time>2014-05-18T07:42:17Z</time>
      </trkpt>
      <trkpt lat="50.10103" lon="3.62181">
        <ele>151.54</ele>
        <time>2014-05-18T07:42:18Z</time>
      </trkpt>
      <trkpt lat="50.1009" lon="3.62104">
        <ele>152.03</ele>
        <time>2014-05-18T07:42:29Z</time>
      </trkpt>
      <trkpt lat="50.10086" lon="3.62084">
        <ele>152.03</ele>
        <time>2014-05-18T07:42:32Z</time>
      </trkpt>
      <trkpt lat="50.10061" lon="3.61963">
        <ele>152.03</ele>
        <time>2014-05-18T07:42:49Z</time>
      </trkpt>
      <trkpt lat="50.10036" lon="3.61807">
        <ele>152.03</ele>
        <time>2014-05-18T07:43:09Z</time>
      </trkpt>
      <trkpt lat="50.10019" lon="3.61704">
        <ele>152.99</ele>
        <time>2014-05-18T07:43:23Z</time>
      </trkpt>
      <trkpt lat="50.10017" lon="3.61698">
        <ele>152.99</ele>
        <time>2014-05-18T07:43:24Z</time>
      </trkpt>
      <trkpt lat="50.10012" lon="3.61656">
        <ele>153.47</ele>
        <time>2014-05-18T07:43:30Z</time>
      </trkpt>
      <trkpt lat="50.10003" lon="3.61613">
        <ele>154.91</ele>
        <time>2014-05-18T07:43:36Z</time>
      </trkpt>
      <trkpt lat="50.10002" lon="3.61606">
        <ele>155.39</ele>
        <time>2014-05-18T07:43:37Z</time>
      </trkpt>
      <trkpt lat="50.09995" lon="3.61562">
        <ele>155.87</ele>
        <time>2014-05-18T07:43:44Z</time>
      </trkpt>
      <trkpt lat="50.09992" lon="3.61542">
        <ele>156.35</ele>
        <time>2014-05-18T07:43:47Z</time>
      </trkpt>
      <trkpt lat="50.09991" lon="3.61535">
        <ele>156.35</ele>
        <time>2014-05-18T07:43:48Z</time>
      </trkpt>
      <trkpt lat="50.09988" lon="3.61477">
        <ele>154.91</ele>
        <time>2014-05-18T07:43:56Z</time>
      </trkpt>
      <trkpt lat="50.09988" lon="3.61462">
        <ele>154.43</ele>
        <time>2014-05-18T07:43:58Z</time>
      </trkpt>
      <trkpt lat="50.09989" lon="3.61454">
        <ele>154.43</ele>
        <time>2014-05-18T07:43:59Z</time>
      </trkpt>
      <trkpt lat="50.09989" lon="3.61424">
        <ele>154.43</ele>
        <time>2014-05-18T07:44:03Z</time>
      </trkpt>
      <trkpt lat="50.0999" lon="3.61418">
        <ele>153.47</ele>
        <time>2014-05-18T07:44:04Z</time>
      </trkpt>
      <trkpt lat="50.09996" lon="3.61343">
        <ele>152.51</ele>
        <time>2014-05-18T07:44:16Z</time>
      </trkpt>
      <trkpt lat="50.1" lon="3.61323">
        <ele>152.03</ele>
        <time>2014-05-18T07:44:21Z</time>
      </trkpt>
      <trkpt lat="50.09999" lon="3.61319">
        <ele>152.03</ele>
        <time>2014-05-18T07:44:22Z</time>
      </trkpt>
      <trkpt lat="50.09998" lon="3.61316">
        <ele>152.03</ele>
        <time>2014-05-18T07:44:23Z</time>
      </trkpt>
      <trkpt lat="50.09998" lon="3.61315">
        <ele>152.03</ele>
        <time>2014-05-18T07:44:24Z</time>
      </trkpt>
      <trkpt lat="50.09997" lon="3.61312">
        <ele>152.03</ele>
        <time>2014-05-18T07:44:25Z</time>
      </trkpt>
      <trkpt lat="50.09996" lon="3.61309">
        <ele>152.03</ele>
        <time>2014-05-18T07:44:26Z</time>
      </trkpt>
      <trkpt lat="50.09995" lon="3.61306">
        <ele>152.03</ele>
        <time>2014-05-18T07:44:27Z</time>
      </trkpt>
      <trkpt lat="50.09995" lon="3.61303">
        <ele>152.03</ele>
        <time>2014-05-18T07:44:28Z</time>
      </trkpt>
      <trkpt lat="50.09995" lon="3.61299">
        <ele>152.03</ele>
        <time>2014-05-18T07:44:29Z</time>
      </trkpt>
      <trkpt lat="50.09995" lon="3.61294">
        <ele>152.03</ele>
        <time>2014-05-18T07:44:30Z</time>
      </trkpt>
      <trkpt lat="50.09995" lon="3.61289">
        <ele>152.03</ele>
        <time>2014-05-18T07:44:31Z</time>
      </trkpt>
      <trkpt lat="50.09995" lon="3.61283">
        <ele>152.03</ele>
        <time>2014-05-18T07:44:32Z</time>
      </trkpt>
      <trkpt lat="50.09995" lon="3.61278">
        <ele>152.03</ele>
        <time>2014-05-18T07:44:33Z</time>
      </trkpt>
      <trkpt lat="50.09993" lon="3.61232">
        <ele>153.95</ele>
        <time>2014-05-18T07:44:44Z</time>
      </trkpt>
      <trkpt lat="50.09988" lon="3.61221">
        <ele>154.91</ele>
        <time>2014-05-18T07:44:48Z</time>
      </trkpt>
      <trkpt lat="50.09986" lon="3.61219">
        <ele>154.91</ele>
        <time>2014-05-18T07:44:49Z</time>
      </trkpt>
      <trkpt lat="50.09984" lon="3.61217">
        <ele>154.91</ele>
        <time>2014-05-18T07:44:50Z</time>
      </trkpt>
      <trkpt lat="50.09981" lon="3.61215">
        <ele>154.91</ele>
        <time>2014-05-18T07:44:51Z</time>
      </trkpt>
      <trkpt lat="50.09979" lon="3.61215">
        <ele>155.39</ele>
        <time>2014-05-18T07:44:52Z</time>
      </trkpt>
      <trkpt lat="50.09948" lon="3.61206">
        <ele>155.87</ele>
        <time>2014-05-18T07:45:02Z</time>
      </trkpt>
      <trkpt lat="50.09917" lon="3.61206">
        <ele>156.35</ele>
        <time>2014-05-18T07:45:12Z</time>
      </trkpt>
      <trkpt lat="50.09883" lon="3.61209">
        <ele>156.83</ele>
        <time>2014-05-18T07:45:23Z</time>
      </trkpt>
      <trkpt lat="50.09853" lon="3.61249">
        <ele>154.91</ele>
        <time>2014-05-18T07:45:34Z</time>
      </trkpt>
      <trkpt lat="50.09837" lon="3.61291">
        <ele>153.95</ele>
        <time>2014-05-18T07:45:44Z</time>
      </trkpt>
      <trkpt lat="50.09835" lon="3.61297">
        <ele>153.95</ele>
        <time>2014-05-18T07:45:45Z</time>
      </trkpt>
      <trkpt lat="50.09834" lon="3.61304">
        <ele>153.95</ele>
        <time>2014-05-18T07:45:46Z</time>
      </trkpt>
      <trkpt lat="50.09833" lon="3.61317">
        <ele>153.95</ele>
        <time>2014-05-18T07:45:48Z</time>
      </trkpt>
      <trkpt lat="50.09831" lon="3.61337">
        <ele>153.95</ele>
        <time>2014-05-18T07:45:51Z</time>
      </trkpt>
      <trkpt lat="50.09831" lon="3.61344">
        <ele>153.95</ele>
        <time>2014-05-18T07:45:52Z</time>
      </trkpt>
      <trkpt lat="50.09829" lon="3.61371">
        <ele>155.39</ele>
        <time>2014-05-18T07:45:56Z</time>
      </trkpt>
      <trkpt lat="50.09814" lon="3.61413">
        <ele>156.35</ele>
        <time>2014-05-18T07:46:04Z</time>
      </trkpt>
      <trkpt lat="50.09781" lon="3.6146">
        <ele>156.83</ele>
        <time>2014-05-18T07:46:14Z</time>
      </trkpt>
      <trkpt lat="50.09757" lon="3.61492">
        <ele>156.83</ele>
        <time>2014-05-18T07:46:21Z</time>
      </trkpt>
      <trkpt lat="50.09752" lon="3.61493">
        <ele>156.83</ele>
        <time>2014-05-18T07:46:22Z</time>
      </trkpt>
      <trkpt lat="50.09749" lon="3.61491">
        <ele>156.83</ele>
        <time>2014-05-18T07:46:23Z</time>
      </trkpt>
      <trkpt lat="50.09746" lon="3.61486">
        <ele>156.83</ele>
        <time>2014-05-18T07:46:24Z</time>
      </trkpt>
      <trkpt lat="50.09744" lon="3.61481">
        <ele>156.83</ele>
        <time>2014-05-18T07:46:25Z</time>
      </trkpt>
      <trkpt lat="50.09741" lon="3.61476">
        <ele>156.83</ele>
        <time>2014-05-18T07:46:26Z</time>
      </trkpt>
      <trkpt lat="50.09738" lon="3.61472">
        <ele>156.83</ele>
        <time>2014-05-18T07:46:27Z</time>
      </trkpt>
      <trkpt lat="50.09735" lon="3.61467">
        <ele>156.83</ele>
        <time>2014-05-18T07:46:28Z</time>
      </trkpt>
      <trkpt lat="50.09733" lon="3.61463">
        <ele>156.83</ele>
        <time>2014-05-18T07:46:29Z</time>
      </trkpt>
      <trkpt lat="50.0973" lon="3.61457">
        <ele>156.83</ele>
        <time>2014-05-18T07:46:30Z</time>
      </trkpt>
      <trkpt lat="50.09728" lon="3.61452">
        <ele>156.83</ele>
        <time>2014-05-18T07:46:31Z</time>
      </trkpt>
      <trkpt lat="50.09726" lon="3.61447">
        <ele>156.83</ele>
        <time>2014-05-18T07:46:32Z</time>
      </trkpt>
      <trkpt lat="50.09724" lon="3.61442">
        <ele>156.83</ele>
        <time>2014-05-18T07:46:33Z</time>
      </trkpt>
      <trkpt lat="50.09722" lon="3.61437">
        <ele>156.83</ele>
        <time>2014-05-18T07:46:34Z</time>
      </trkpt>
      <trkpt lat="50.0972" lon="3.61433">
        <ele>156.83</ele>
        <time>2014-05-18T07:46:35Z</time>
      </trkpt>
      <trkpt lat="50.09718" lon="3.61428">
        <ele>156.83</ele>
        <time>2014-05-18T07:46:36Z</time>
      </trkpt>
      <trkpt lat="50.09716" lon="3.61423">
        <ele>156.83</ele>
        <time>2014-05-18T07:46:37Z</time>
      </trkpt>
      <trkpt lat="50.09714" lon="3.61418">
        <ele>156.83</ele>
        <time>2014-05-18T07:46:38Z</time>
      </trkpt>
      <trkpt lat="50.09713" lon="3.61413">
        <ele>156.83</ele>
        <time>2014-05-18T07:46:39Z</time>
      </trkpt>
      <trkpt lat="50.09711" lon="3.61408">
        <ele>156.83</ele>
        <time>2014-05-18T07:46:40Z</time>
      </trkpt>
      <trkpt lat="50.0971" lon="3.61403">
        <ele>156.83</ele>
        <time>2014-05-18T07:46:41Z</time>
      </trkpt>
      <trkpt lat="50.09708" lon="3.61398">
        <ele>156.83</ele>
        <time>2014-05-18T07:46:42Z</time>
      </trkpt>
      <trkpt lat="50.09687" lon="3.61343">
        <ele>156.83</ele>
        <time>2014-05-18T07:46:52Z</time>
      </trkpt>
      <trkpt lat="50.09669" lon="3.61286">
        <ele>157.31</ele>
        <time>2014-05-18T07:47:02Z</time>
      </trkpt>
      <trkpt lat="50.09655" lon="3.6123">
        <ele>157.31</ele>
        <time>2014-05-18T07:47:12Z</time>
      </trkpt>
      <trkpt lat="50.09634" lon="3.61166">
        <ele>157.31</ele>
        <time>2014-05-18T07:47:23Z</time>
      </trkpt>
      <trkpt lat="50.09617" lon="3.61109">
        <ele>155.39</ele>
        <time>2014-05-18T07:47:32Z</time>
      </trkpt>
      <trkpt lat="50.09615" lon="3.61103">
        <ele>155.39</ele>
        <time>2014-05-18T07:47:33Z</time>
      </trkpt>
      <trkpt lat="50.09609" lon="3.61082">
        <ele>154.43</ele>
        <time>2014-05-18T07:47:36Z</time>
      </trkpt>
      <trkpt lat="50.09589" lon="3.6098">
        <ele>152.03</ele>
        <time>2014-05-18T07:47:48Z</time>
      </trkpt>
      <trkpt lat="50.09579" lon="3.6093">
        <ele>151.06</ele>
        <time>2014-05-18T07:47:55Z</time>
      </trkpt>
      <trkpt lat="50.09581" lon="3.60923">
        <ele>151.06</ele>
        <time>2014-05-18T07:47:56Z</time>
      </trkpt>
      <trkpt lat="50.09587" lon="3.60913">
        <ele>151.06</ele>
        <time>2014-05-18T07:47:58Z</time>
      </trkpt>
      <trkpt lat="50.09602" lon="3.60904">
        <ele>152.51</ele>
        <time>2014-05-18T07:48:02Z</time>
      </trkpt>
      <trkpt lat="50.09637" lon="3.60877">
        <ele>154.43</ele>
        <time>2014-05-18T07:48:13Z</time>
      </trkpt>
      <trkpt lat="50.09675" lon="3.60838">
        <ele>156.35</ele>
        <time>2014-05-18T07:48:25Z</time>
      </trkpt>
      <trkpt lat="50.09684" lon="3.6082">
        <ele>156.83</ele>
        <time>2014-05-18T07:48:29Z</time>
      </trkpt>
      <trkpt lat="50.09686" lon="3.60814">
        <ele>157.31</ele>
        <time>2014-05-18T07:48:30Z</time>
      </trkpt>
      <trkpt lat="50.09687" lon="3.60806">
        <ele>156.83</ele>
        <time>2014-05-18T07:48:31Z</time>
      </trkpt>
      <trkpt lat="50.09688" lon="3.60799">
        <ele>156.83</ele>
        <time>2014-05-18T07:48:32Z</time>
      </trkpt>
      <trkpt lat="50.0969" lon="3.60793">
        <ele>156.83</ele>
        <time>2014-05-18T07:48:33Z</time>
      </trkpt>
      <trkpt lat="50.09702" lon="3.60757">
        <ele>157.31</ele>
        <time>2014-05-18T07:48:39Z</time>
      </trkpt>
      <trkpt lat="50.09704" lon="3.6075">
        <ele>157.31</ele>
        <time>2014-05-18T07:48:40Z</time>
      </trkpt>
      <trkpt lat="50.09706" lon="3.60744">
        <ele>157.31</ele>
        <time>2014-05-18T07:48:41Z</time>
      </trkpt>
      <trkpt lat="50.09708" lon="3.60737">
        <ele>157.31</ele>
        <time>2014-05-18T07:48:42Z</time>
      </trkpt>
      <trkpt lat="50.0971" lon="3.6073">
        <ele>157.31</ele>
        <time>2014-05-18T07:48:43Z</time>
      </trkpt>
      <trkpt lat="50.09729" lon="3.60665">
        <ele>157.31</ele>
        <time>2014-05-18T07:48:55Z</time>
      </trkpt>
      <trkpt lat="50.09743" lon="3.60627">
        <ele>155.87</ele>
        <time>2014-05-18T07:49:04Z</time>
      </trkpt>
      <trkpt lat="50.09762" lon="3.60589">
        <ele>155.87</ele>
        <time>2014-05-18T07:49:13Z</time>
      </trkpt>
      <trkpt lat="50.09781" lon="3.60566">
        <ele>154.91</ele>
        <time>2014-05-18T07:49:18Z</time>
      </trkpt>
      <trkpt lat="50.09788" lon="3.60561">
        <ele>154.91</ele>
        <time>2014-05-18T07:49:19Z</time>
      </trkpt>
      <trkpt lat="50.09793" lon="3.60559">
        <ele>154.91</ele>
        <time>2014-05-18T07:49:20Z</time>
      </trkpt>
      <trkpt lat="50.09798" lon="3.6056">
        <ele>154.91</ele>
        <time>2014-05-18T07:49:21Z</time>
      </trkpt>
      <trkpt lat="50.09809" lon="3.60559">
        <ele>154.91</ele>
        <time>2014-05-18T07:49:23Z</time>
      </trkpt>
      <trkpt lat="50.09819" lon="3.60558">
        <ele>154.91</ele>
        <time>2014-05-18T07:49:25Z</time>
      </trkpt>
      <trkpt lat="50.0983" lon="3.60547">
        <ele>154.91</ele>
        <time>2014-05-18T07:49:28Z</time>
      </trkpt>
      <trkpt lat="50.09843" lon="3.60534">
        <ele>154.91</ele>
        <time>2014-05-18T07:49:31Z</time>
      </trkpt>
      <trkpt lat="50.09847" lon="3.6053">
        <ele>154.91</ele>
        <time>2014-05-18T07:49:32Z</time>
      </trkpt>
      <trkpt lat="50.09851" lon="3.60524">
        <ele>155.39</ele>
        <time>2014-05-18T07:49:33Z</time>
      </trkpt>
      <trkpt lat="50.09855" lon="3.60517">
        <ele>155.39</ele>
        <time>2014-05-18T07:49:34Z</time>
      </trkpt>
      <trkpt lat="50.09859" lon="3.60509">
        <ele>154.91</ele>
        <time>2014-05-18T07:49:35Z</time>
      </trkpt>
      <trkpt lat="50.09863" lon="3.60501">
        <ele>154.91</ele>
        <time>2014-05-18T07:49:36Z</time>
      </trkpt>
      <trkpt lat="50.09867" lon="3.60494">
        <ele>155.39</ele>
        <time>2014-05-18T07:49:37Z</time>
      </trkpt>
      <trkpt lat="50.09872" lon="3.60487">
        <ele>155.39</ele>
        <time>2014-05-18T07:49:38Z</time>
      </trkpt>
      <trkpt lat="50.09875" lon="3.60481">
        <ele>154.91</ele>
        <time>2014-05-18T07:49:39Z</time>
      </trkpt>
      <trkpt lat="50.09878" lon="3.60473">
        <ele>154.91</ele>
        <time>2014-05-18T07:49:40Z</time>
      </trkpt>
      <trkpt lat="50.09881" lon="3.60465">
        <ele>154.43</ele>
        <time>2014-05-18T07:49:41Z</time>
      </trkpt>
      <trkpt lat="50.09884" lon="3.60458">
        <ele>154.43</ele>
        <time>2014-05-18T07:49:42Z</time>
      </trkpt>
      <trkpt lat="50.09887" lon="3.60451">
        <ele>153.95</ele>
        <time>2014-05-18T07:49:43Z</time>
      </trkpt>
      <trkpt lat="50.09889" lon="3.60443">
        <ele>153.95</ele>
        <time>2014-05-18T07:49:44Z</time>
      </trkpt>
      <trkpt lat="50.09888" lon="3.60434">
        <ele>153.95</ele>
        <time>2014-05-18T07:49:45Z</time>
      </trkpt>
      <trkpt lat="50.0988" lon="3.60397">
        <ele>152.51</ele>
        <time>2014-05-18T07:49:49Z</time>
      </trkpt>
      <trkpt lat="50.0988" lon="3.60386">
        <ele>152.03</ele>
        <time>2014-05-18T07:49:50Z</time>
      </trkpt>
      <trkpt lat="50.09882" lon="3.60377">
        <ele>152.03</ele>
        <time>2014-05-18T07:49:51Z</time>
      </trkpt>
      <trkpt lat="50.09885" lon="3.60367">
        <ele>152.03</ele>
        <time>2014-05-18T07:49:52Z</time>
      </trkpt>
      <trkpt lat="50.09887" lon="3.60359">
        <ele>151.54</ele>
        <time>2014-05-18T07:49:53Z</time>
      </trkpt>
      <trkpt lat="50.0989" lon="3.60351">
        <ele>151.54</ele>
        <time>2014-05-18T07:49:54Z</time>
      </trkpt>
      <trkpt lat="50.09893" lon="3.60343">
        <ele>151.54</ele>
        <time>2014-05-18T07:49:55Z</time>
      </trkpt>
      <trkpt lat="50.09904" lon="3.6029">
        <ele>149.62</ele>
        <time>2014-05-18T07:50:01Z</time>
      </trkpt>
      <trkpt lat="50.09904" lon="3.6028">
        <ele>149.14</ele>
        <time>2014-05-18T07:50:02Z</time>
      </trkpt>
      <trkpt lat="50.09902" lon="3.60271">
        <ele>149.14</ele>
        <time>2014-05-18T07:50:03Z</time>
      </trkpt>
      <trkpt lat="50.09892" lon="3.60234">
        <ele>148.18</ele>
        <time>2014-05-18T07:50:07Z</time>
      </trkpt>
      <trkpt lat="50.09887" lon="3.60214">
        <ele>147.7</ele>
        <time>2014-05-18T07:50:09Z</time>
      </trkpt>
      <trkpt lat="50.09881" lon="3.60185">
        <ele>146.26</ele>
        <time>2014-05-18T07:50:12Z</time>
      </trkpt>
      <trkpt lat="50.09876" lon="3.60155">
        <ele>146.26</ele>
        <time>2014-05-18T07:50:15Z</time>
      </trkpt>
      <trkpt lat="50.09875" lon="3.60147">
        <ele>145.78</ele>
        <time>2014-05-18T07:50:16Z</time>
      </trkpt>
      <trkpt lat="50.09874" lon="3.60138">
        <ele>145.78</ele>
        <time>2014-05-18T07:50:17Z</time>
      </trkpt>
      <trkpt lat="50.09875" lon="3.60128">
        <ele>144.82</ele>
        <time>2014-05-18T07:50:18Z</time>
      </trkpt>
      <trkpt lat="50.09878" lon="3.60121">
        <ele>144.82</ele>
        <time>2014-05-18T07:50:19Z</time>
      </trkpt>
      <trkpt lat="50.09882" lon="3.60115">
        <ele>144.34</ele>
        <time>2014-05-18T07:50:20Z</time>
      </trkpt>
      <trkpt lat="50.09886" lon="3.60109">
        <ele>144.34</ele>
        <time>2014-05-18T07:50:21Z</time>
      </trkpt>
      <trkpt lat="50.09891" lon="3.60103">
        <ele>144.34</ele>
        <time>2014-05-18T07:50:22Z</time>
      </trkpt>
      <trkpt lat="50.09896" lon="3.60096">
        <ele>144.34</ele>
        <time>2014-05-18T07:50:23Z</time>
      </trkpt>
      <trkpt lat="50.09901" lon="3.6009">
        <ele>144.34</ele>
        <time>2014-05-18T07:50:24Z</time>
      </trkpt>
      <trkpt lat="50.09905" lon="3.60083">
        <ele>144.34</ele>
        <time>2014-05-18T07:50:25Z</time>
      </trkpt>
      <trkpt lat="50.09914" lon="3.60067">
        <ele>143.85</ele>
        <time>2014-05-18T07:50:27Z</time>
      </trkpt>
      <trkpt lat="50.09919" lon="3.60059">
        <ele>143.85</ele>
        <time>2014-05-18T07:50:28Z</time>
      </trkpt>
      <trkpt lat="50.09923" lon="3.60051">
        <ele>143.85</ele>
        <time>2014-05-18T07:50:29Z</time>
      </trkpt>
      <trkpt lat="50.09927" lon="3.60044">
        <ele>143.85</ele>
        <time>2014-05-18T07:50:30Z</time>
      </trkpt>
      <trkpt lat="50.0993" lon="3.60038">
        <ele>143.85</ele>
        <time>2014-05-18T07:50:31Z</time>
      </trkpt>
      <trkpt lat="50.09933" lon="3.60031">
        <ele>143.85</ele>
        <time>2014-05-18T07:50:32Z</time>
      </trkpt>
      <trkpt lat="50.09937" lon="3.60025">
        <ele>143.85</ele>
        <time>2014-05-18T07:50:33Z</time>
      </trkpt>
      <trkpt lat="50.09941" lon="3.6002">
        <ele>143.85</ele>
        <time>2014-05-18T07:50:34Z</time>
      </trkpt>
      <trkpt lat="50.09955" lon="3.60005">
        <ele>143.85</ele>
        <time>2014-05-18T07:50:37Z</time>
      </trkpt>
      <trkpt lat="50.0996" lon="3.60001">
        <ele>143.85</ele>
        <time>2014-05-18T07:50:38Z</time>
      </trkpt>
      <trkpt lat="50.09983" lon="3.59986">
        <ele>144.34</ele>
        <time>2014-05-18T07:50:43Z</time>
      </trkpt>
      <trkpt lat="50.09986" lon="3.59981">
        <ele>144.34</ele>
        <time>2014-05-18T07:50:44Z</time>
      </trkpt>
      <trkpt lat="50.09987" lon="3.59975">
        <ele>144.34</ele>
        <time>2014-05-18T07:50:45Z</time>
      </trkpt>
      <trkpt lat="50.09988" lon="3.59969">
        <ele>144.34</ele>
        <time>2014-05-18T07:50:46Z</time>
      </trkpt>
      <trkpt lat="50.09989" lon="3.59962">
        <ele>144.34</ele>
        <time>2014-05-18T07:50:47Z</time>
      </trkpt>
      <trkpt lat="50.09993" lon="3.5993">
        <ele>144.34</ele>
        <time>2014-05-18T07:50:51Z</time>
      </trkpt>
      <trkpt lat="50.09995" lon="3.59921">
        <ele>144.34</ele>
        <time>2014-05-18T07:50:52Z</time>
      </trkpt>
      <trkpt lat="50.09996" lon="3.59913">
        <ele>144.34</ele>
        <time>2014-05-18T07:50:53Z</time>
      </trkpt>
      <trkpt lat="50.1" lon="3.59904">
        <ele>144.34</ele>
        <time>2014-05-18T07:50:54Z</time>
      </trkpt>
      <trkpt lat="50.10003" lon="3.59898">
        <ele>144.34</ele>
        <time>2014-05-18T07:50:55Z</time>
      </trkpt>
      <trkpt lat="50.1001" lon="3.59882">
        <ele>144.34</ele>
        <time>2014-05-18T07:50:57Z</time>
      </trkpt>
      <trkpt lat="50.10012" lon="3.59875">
        <ele>144.34</ele>
        <time>2014-05-18T07:50:58Z</time>
      </trkpt>
      <trkpt lat="50.10014" lon="3.59867">
        <ele>143.85</ele>
        <time>2014-05-18T07:50:59Z</time>
      </trkpt>
      <trkpt lat="50.10043" lon="3.59742">
        <ele>143.85</ele>
        <time>2014-05-18T07:51:14Z</time>
      </trkpt>
      <trkpt lat="50.10055" lon="3.59696">
        <ele>143.85</ele>
        <time>2014-05-18T07:51:20Z</time>
      </trkpt>
      <trkpt lat="50.10062" lon="3.59664">
        <ele>143.85</ele>
        <time>2014-05-18T07:51:24Z</time>
      </trkpt>
      <trkpt lat="50.10064" lon="3.59657">
        <ele>143.85</ele>
        <time>2014-05-18T07:51:25Z</time>
      </trkpt>
      <trkpt lat="50.10085" lon="3.59579">
        <ele>144.82</ele>
        <time>2014-05-18T07:51:36Z</time>
      </trkpt>
      <trkpt lat="50.10086" lon="3.59572">
        <ele>145.3</ele>
        <time>2014-05-18T07:51:37Z</time>
      </trkpt>
      <trkpt lat="50.10089" lon="3.5955">
        <ele>145.3</ele>
        <time>2014-05-18T07:51:40Z</time>
      </trkpt>
      <trkpt lat="50.10089" lon="3.59543">
        <ele>145.3</ele>
        <time>2014-05-18T07:51:41Z</time>
      </trkpt>
      <trkpt lat="50.10089" lon="3.59529">
        <ele>145.3</ele>
        <time>2014-05-18T07:51:43Z</time>
      </trkpt>
      <trkpt lat="50.10089" lon="3.59521">
        <ele>145.3</ele>
        <time>2014-05-18T07:51:44Z</time>
      </trkpt>
      <trkpt lat="50.10089" lon="3.59514">
        <ele>145.3</ele>
        <time>2014-05-18T07:51:45Z</time>
      </trkpt>
      <trkpt lat="50.10082" lon="3.59451">
        <ele>145.78</ele>
        <time>2014-05-18T07:51:54Z</time>
      </trkpt>
      <trkpt lat="50.10081" lon="3.59445">
        <ele>145.78</ele>
        <time>2014-05-18T07:51:55Z</time>
      </trkpt>
      <trkpt lat="50.1008" lon="3.59438">
        <ele>145.78</ele>
        <time>2014-05-18T07:51:56Z</time>
      </trkpt>
      <trkpt lat="50.10078" lon="3.59414">
        <ele>145.78</ele>
        <time>2014-05-18T07:51:59Z</time>
      </trkpt>
      <trkpt lat="50.10072" lon="3.59289">
        <ele>145.78</ele>
        <time>2014-05-18T07:52:14Z</time>
      </trkpt>
      <trkpt lat="50.10088" lon="3.59145">
        <ele>145.78</ele>
        <time>2014-05-18T07:52:29Z</time>
      </trkpt>
      <trkpt lat="50.10097" lon="3.59079">
        <ele>144.34</ele>
        <time>2014-05-18T07:52:36Z</time>
      </trkpt>
      <trkpt lat="50.10117" lon="3.58958">
        <ele>143.85</ele>
        <time>2014-05-18T07:52:50Z</time>
      </trkpt>
      <trkpt lat="50.1012" lon="3.58935">
        <ele>143.85</ele>
        <time>2014-05-18T07:52:53Z</time>
      </trkpt>
      <trkpt lat="50.10139" lon="3.58815">
        <ele>142.41</ele>
        <time>2014-05-18T07:53:07Z</time>
      </trkpt>
      <trkpt lat="50.10148" lon="3.58665">
        <ele>140.01</ele>
        <time>2014-05-18T07:53:22Z</time>
      </trkpt>
      <trkpt lat="50.10153" lon="3.58533">
        <ele>137.13</ele>
        <time>2014-05-18T07:53:35Z</time>
      </trkpt>
      <trkpt lat="50.10156" lon="3.58512">
        <ele>137.13</ele>
        <time>2014-05-18T07:53:37Z</time>
      </trkpt>
      <trkpt lat="50.10171" lon="3.58397">
        <ele>134.72</ele>
        <time>2014-05-18T07:53:48Z</time>
      </trkpt>
      <trkpt lat="50.10188" lon="3.58317">
        <ele>131.36</ele>
        <time>2014-05-18T07:53:55Z</time>
      </trkpt>
      <trkpt lat="50.10206" lon="3.58229">
        <ele>127.99</ele>
        <time>2014-05-18T07:54:02Z</time>
      </trkpt>
      <trkpt lat="50.10214" lon="3.58158">
        <ele>126.07</ele>
        <time>2014-05-18T07:54:07Z</time>
      </trkpt>
      <trkpt lat="50.10214" lon="3.58144">
        <ele>125.11</ele>
        <time>2014-05-18T07:54:08Z</time>
      </trkpt>
      <trkpt lat="50.10213" lon="3.58129">
        <ele>125.11</ele>
        <time>2014-05-18T07:54:09Z</time>
      </trkpt>
      <trkpt lat="50.10211" lon="3.58116">
        <ele>124.63</ele>
        <time>2014-05-18T07:54:10Z</time>
      </trkpt>
      <trkpt lat="50.10209" lon="3.58102">
        <ele>124.63</ele>
        <time>2014-05-18T07:54:11Z</time>
      </trkpt>
      <trkpt lat="50.10203" lon="3.58063">
        <ele>124.15</ele>
        <time>2014-05-18T07:54:14Z</time>
      </trkpt>
      <trkpt lat="50.10203" lon="3.5805">
        <ele>123.67</ele>
        <time>2014-05-18T07:54:15Z</time>
      </trkpt>
      <trkpt lat="50.10203" lon="3.58037">
        <ele>123.67</ele>
        <time>2014-05-18T07:54:16Z</time>
      </trkpt>
      <trkpt lat="50.10206" lon="3.58026">
        <ele>123.67</ele>
        <time>2014-05-18T07:54:17Z</time>
      </trkpt>
      <trkpt lat="50.10209" lon="3.58015">
        <ele>123.67</ele>
        <time>2014-05-18T07:54:18Z</time>
      </trkpt>
      <trkpt lat="50.10212" lon="3.58005">
        <ele>124.15</ele>
        <time>2014-05-18T07:54:19Z</time>
      </trkpt>
      <trkpt lat="50.10217" lon="3.57983">
        <ele>123.19</ele>
        <time>2014-05-18T07:54:21Z</time>
      </trkpt>
      <trkpt lat="50.1022" lon="3.57973">
        <ele>122.71</ele>
        <time>2014-05-18T07:54:22Z</time>
      </trkpt>
      <trkpt lat="50.10226" lon="3.57959">
        <ele>121.74</ele>
        <time>2014-05-18T07:54:24Z</time>
      </trkpt>
      <trkpt lat="50.10227" lon="3.57952">
        <ele>121.74</ele>
        <time>2014-05-18T07:54:25Z</time>
      </trkpt>
      <trkpt lat="50.10228" lon="3.57946">
        <ele>121.26</ele>
        <time>2014-05-18T07:54:26Z</time>
      </trkpt>
      <trkpt lat="50.10228" lon="3.57939">
        <ele>121.26</ele>
        <time>2014-05-18T07:54:27Z</time>
      </trkpt>
      <trkpt lat="50.10227" lon="3.57934">
        <ele>121.26</ele>
        <time>2014-05-18T07:54:28Z</time>
      </trkpt>
      <trkpt lat="50.10226" lon="3.5793">
        <ele>121.26</ele>
        <time>2014-05-18T07:54:29Z</time>
      </trkpt>
      <trkpt lat="50.10224" lon="3.57925">
        <ele>121.26</ele>
        <time>2014-05-18T07:54:30Z</time>
      </trkpt>
      <trkpt lat="50.10222" lon="3.5792">
        <ele>121.26</ele>
        <time>2014-05-18T07:54:31Z</time>
      </trkpt>
      <trkpt lat="50.10216" lon="3.57905">
        <ele>122.71</ele>
        <time>2014-05-18T07:54:34Z</time>
      </trkpt>
      <trkpt lat="50.10193" lon="3.57845">
        <ele>126.55</ele>
        <time>2014-05-18T07:54:47Z</time>
      </trkpt>
      <trkpt lat="50.10161" lon="3.57774">
        <ele>129.92</ele>
        <time>2014-05-18T07:55:03Z</time>
      </trkpt>
      <trkpt lat="50.10141" lon="3.57712">
        <ele>133.28</ele>
        <time>2014-05-18T07:55:16Z</time>
      </trkpt>
      <trkpt lat="50.10135" lon="3.57656">
        <ele>135.68</ele>
        <time>2014-05-18T07:55:28Z</time>
      </trkpt>
      <trkpt lat="50.10143" lon="3.57608">
        <ele>135.2</ele>
        <time>2014-05-18T07:55:38Z</time>
      </trkpt>
      <trkpt lat="50.10143" lon="3.57609">
        <ele>135.2</ele>
        <time>2014-05-18T07:56:06Z</time>
      </trkpt>
      <trkpt lat="50.10142" lon="3.5761">
        <ele>135.2</ele>
        <time>2014-05-18T07:56:37Z</time>
      </trkpt>
      <trkpt lat="50.10143" lon="3.57609">
        <ele>135.2</ele>
        <time>2014-05-18T07:57:03Z</time>
      </trkpt>
      <trkpt lat="50.10142" lon="3.57609">
        <ele>135.2</ele>
        <time>2014-05-18T07:57:33Z</time>
      </trkpt>
      <trkpt lat="50.10142" lon="3.57608">
        <ele>135.2</ele>
        <time>2014-05-18T07:57:48Z</time>
      </trkpt>
      <trkpt lat="50.10142" lon="3.57605">
        <ele>135.2</ele>
        <time>2014-05-18T07:57:49Z</time>
      </trkpt>
      <trkpt lat="50.10142" lon="3.57602">
        <ele>135.2</ele>
        <time>2014-05-18T07:57:50Z</time>
      </trkpt>
      <trkpt lat="50.10143" lon="3.57598">
        <ele>135.2</ele>
        <time>2014-05-18T07:57:51Z</time>
      </trkpt>
      <trkpt lat="50.10144" lon="3.57594">
        <ele>135.2</ele>
        <time>2014-05-18T07:57:52Z</time>
      </trkpt>
      <trkpt lat="50.10145" lon="3.5759">
        <ele>135.2</ele>
        <time>2014-05-18T07:57:53Z</time>
      </trkpt>
      <trkpt lat="50.10146" lon="3.57585">
        <ele>135.2</ele>
        <time>2014-05-18T07:57:54Z</time>
      </trkpt>
      <trkpt lat="50.10147" lon="3.5758">
        <ele>134.72</ele>
        <time>2014-05-18T07:57:55Z</time>
      </trkpt>
      <trkpt lat="50.10155" lon="3.5753">
        <ele>134.72</ele>
        <time>2014-05-18T07:58:07Z</time>
      </trkpt>
      <trkpt lat="50.10156" lon="3.57524">
        <ele>134.72</ele>
        <time>2014-05-18T07:58:10Z</time>
      </trkpt>
      <trkpt lat="50.10165" lon="3.57474">
        <ele>134.72</ele>
        <time>2014-05-18T07:58:23Z</time>
      </trkpt>
      <trkpt lat="50.10175" lon="3.57409">
        <ele>136.16</ele>
        <time>2014-05-18T07:58:35Z</time>
      </trkpt>
      <trkpt lat="50.10176" lon="3.57331">
        <ele>138.09</ele>
        <time>2014-05-18T07:58:49Z</time>
      </trkpt>
      <trkpt lat="50.10174" lon="3.57268">
        <ele>140.49</ele>
        <time>2014-05-18T07:59:01Z</time>
      </trkpt>
      <trkpt lat="50.10171" lon="3.57179">
        <ele>142.41</ele>
        <time>2014-05-18T07:59:16Z</time>
      </trkpt>
      <trkpt lat="50.1015" lon="3.57132">
        <ele>143.37</ele>
        <time>2014-05-18T07:59:26Z</time>
      </trkpt>
      <trkpt lat="50.10111" lon="3.57044">
        <ele>144.34</ele>
        <time>2014-05-18T07:59:43Z</time>
      </trkpt>
      <trkpt lat="50.10121" lon="3.57002">
        <ele>145.3</ele>
        <time>2014-05-18T07:59:52Z</time>
      </trkpt>
      <trkpt lat="50.10172" lon="3.56945">
        <ele>146.74</ele>
        <time>2014-05-18T08:00:07Z</time>
      </trkpt>
      <trkpt lat="50.10179" lon="3.56937">
        <ele>146.74</ele>
        <time>2014-05-18T08:00:09Z</time>
      </trkpt>
      <trkpt lat="50.10233" lon="3.56879">
        <ele>149.62</ele>
        <time>2014-05-18T08:00:26Z</time>
      </trkpt>
      <trkpt lat="50.10246" lon="3.56865">
        <ele>150.1</ele>
        <time>2014-05-18T08:00:30Z</time>
      </trkpt>
      <trkpt lat="50.10249" lon="3.56861">
        <ele>150.1</ele>
        <time>2014-05-18T08:00:31Z</time>
      </trkpt>
      <trkpt lat="50.10263" lon="3.56845">
        <ele>150.58</ele>
        <time>2014-05-18T08:00:35Z</time>
      </trkpt>
      <trkpt lat="50.10266" lon="3.56842">
        <ele>150.58</ele>
        <time>2014-05-18T08:00:36Z</time>
      </trkpt>
      <trkpt lat="50.1027" lon="3.56838">
        <ele>151.06</ele>
        <time>2014-05-18T08:00:37Z</time>
      </trkpt>
      <trkpt lat="50.10329" lon="3.56773">
        <ele>152.03</ele>
        <time>2014-05-18T08:00:53Z</time>
      </trkpt>
      <trkpt lat="50.1039" lon="3.56702">
        <ele>152.51</ele>
        <time>2014-05-18T08:01:10Z</time>
      </trkpt>
      <trkpt lat="50.10403" lon="3.56688">
        <ele>151.06</ele>
        <time>2014-05-18T08:01:13Z</time>
      </trkpt>
      <trkpt lat="50.10446" lon="3.56639">
        <ele>148.18</ele>
        <time>2014-05-18T08:01:24Z</time>
      </trkpt>
      <trkpt lat="50.10447" lon="3.56636">
        <ele>148.18</ele>
        <time>2014-05-18T08:01:25Z</time>
      </trkpt>
      <trkpt lat="50.10447" lon="3.56629">
        <ele>148.18</ele>
        <time>2014-05-18T08:01:26Z</time>
      </trkpt>
      <trkpt lat="50.10447" lon="3.56624">
        <ele>147.7</ele>
        <time>2014-05-18T08:01:27Z</time>
      </trkpt>
      <trkpt lat="50.10445" lon="3.56617">
        <ele>147.7</ele>
        <time>2014-05-18T08:01:28Z</time>
      </trkpt>
      <trkpt lat="50.10443" lon="3.56611">
        <ele>148.18</ele>
        <time>2014-05-18T08:01:29Z</time>
      </trkpt>
      <trkpt lat="50.1044" lon="3.56604">
        <ele>148.18</ele>
        <time>2014-05-18T08:01:30Z</time>
      </trkpt>
      <trkpt lat="50.10431" lon="3.56583">
        <ele>149.62</ele>
        <time>2014-05-18T08:01:33Z</time>
      </trkpt>
      <trkpt lat="50.10428" lon="3.56577">
        <ele>149.62</ele>
        <time>2014-05-18T08:01:34Z</time>
      </trkpt>
      <trkpt lat="50.10416" lon="3.56541">
        <ele>150.1</ele>
        <time>2014-05-18T08:01:39Z</time>
      </trkpt>
      <trkpt lat="50.1039" lon="3.5641">
        <ele>151.54</ele>
        <time>2014-05-18T08:01:55Z</time>
      </trkpt>
      <trkpt lat="50.10385" lon="3.56381">
        <ele>151.54</ele>
        <time>2014-05-18T08:01:58Z</time>
      </trkpt>
      <trkpt lat="50.10356" lon="3.56223">
        <ele>152.03</ele>
        <time>2014-05-18T08:02:14Z</time>
      </trkpt>
      <trkpt lat="50.10325" lon="3.56105">
        <ele>152.99</ele>
        <time>2014-05-18T08:02:29Z</time>
      </trkpt>
      <trkpt lat="50.10323" lon="3.56098">
        <ele>152.99</ele>
        <time>2014-05-18T08:02:30Z</time>
      </trkpt>
      <trkpt lat="50.10321" lon="3.5609">
        <ele>152.99</ele>
        <time>2014-05-18T08:02:31Z</time>
      </trkpt>
      <trkpt lat="50.10319" lon="3.56083">
        <ele>152.99</ele>
        <time>2014-05-18T08:02:32Z</time>
      </trkpt>
      <trkpt lat="50.1031" lon="3.56051">
        <ele>151.54</ele>
        <time>2014-05-18T08:02:36Z</time>
      </trkpt>
      <trkpt lat="50.10272" lon="3.55918">
        <ele>148.66</ele>
        <time>2014-05-18T08:02:51Z</time>
      </trkpt>
      <trkpt lat="50.1024" lon="3.5581">
        <ele>145.3</ele>
        <time>2014-05-18T08:03:02Z</time>
      </trkpt>
      <trkpt lat="50.10215" lon="3.55721">
        <ele>142.41</ele>
        <time>2014-05-18T08:03:10Z</time>
      </trkpt>
      <trkpt lat="50.10193" lon="3.55649">
        <ele>139.53</ele>
        <time>2014-05-18T08:03:16Z</time>
      </trkpt>
      <trkpt lat="50.1019" lon="3.55639">
        <ele>139.05</ele>
        <time>2014-05-18T08:03:17Z</time>
      </trkpt>
      <trkpt lat="50.10189" lon="3.5563">
        <ele>138.57</ele>
        <time>2014-05-18T08:03:18Z</time>
      </trkpt>
      <trkpt lat="50.1019" lon="3.55619">
        <ele>138.57</ele>
        <time>2014-05-18T08:03:19Z</time>
      </trkpt>
      <trkpt lat="50.10192" lon="3.55609">
        <ele>138.57</ele>
        <time>2014-05-18T08:03:20Z</time>
      </trkpt>
      <trkpt lat="50.10195" lon="3.55599">
        <ele>137.61</ele>
        <time>2014-05-18T08:03:21Z</time>
      </trkpt>
      <trkpt lat="50.10202" lon="3.55578">
        <ele>137.13</ele>
        <time>2014-05-18T08:03:23Z</time>
      </trkpt>
      <trkpt lat="50.1023" lon="3.55483">
        <ele>134.24</ele>
        <time>2014-05-18T08:03:31Z</time>
      </trkpt>
      <trkpt lat="50.10249" lon="3.55417">
        <ele>131.84</ele>
        <time>2014-05-18T08:03:36Z</time>
      </trkpt>
      <trkpt lat="50.10272" lon="3.55344">
        <ele>128.47</ele>
        <time>2014-05-18T08:03:41Z</time>
      </trkpt>
      <trkpt lat="50.103" lon="3.55253">
        <ele>125.11</ele>
        <time>2014-05-18T08:03:47Z</time>
      </trkpt>
      <trkpt lat="50.10319" lon="3.55195">
        <ele>123.19</ele>
        <time>2014-05-18T08:03:51Z</time>
      </trkpt>
      <trkpt lat="50.10323" lon="3.5518">
        <ele>122.71</ele>
        <time>2014-05-18T08:03:52Z</time>
      </trkpt>
      <trkpt lat="50.10326" lon="3.55164">
        <ele>122.71</ele>
        <time>2014-05-18T08:03:53Z</time>
      </trkpt>
      <trkpt lat="50.1034" lon="3.55068">
        <ele>118.86</ele>
        <time>2014-05-18T08:03:59Z</time>
      </trkpt>
      <trkpt lat="50.10371" lon="3.54866">
        <ele>118.38</ele>
        <time>2014-05-18T08:04:13Z</time>
      </trkpt>
      <trkpt lat="50.10376" lon="3.54844">
        <ele>119.34</ele>
        <time>2014-05-18T08:04:15Z</time>
      </trkpt>
      <trkpt lat="50.10401" lon="3.54757">
        <ele>122.22</ele>
        <time>2014-05-18T08:04:25Z</time>
      </trkpt>
      <trkpt lat="50.10439" lon="3.54617">
        <ele>123.67</ele>
        <time>2014-05-18T08:04:43Z</time>
      </trkpt>
      <trkpt lat="50.10452" lon="3.54564">
        <ele>121.74</ele>
        <time>2014-05-18T08:04:49Z</time>
      </trkpt>
      <trkpt lat="50.10456" lon="3.54556">
        <ele>121.74</ele>
        <time>2014-05-18T08:04:50Z</time>
      </trkpt>
      <trkpt lat="50.10524" lon="3.54443">
        <ele>118.38</ele>
        <time>2014-05-18T08:05:04Z</time>
      </trkpt>
      <trkpt lat="50.10529" lon="3.54433">
        <ele>118.38</ele>
        <time>2014-05-18T08:05:05Z</time>
      </trkpt>
      <trkpt lat="50.10531" lon="3.54423">
        <ele>117.9</ele>
        <time>2014-05-18T08:05:06Z</time>
      </trkpt>
      <trkpt lat="50.10531" lon="3.54411">
        <ele>117.9</ele>
        <time>2014-05-18T08:05:07Z</time>
      </trkpt>
      <trkpt lat="50.10528" lon="3.54401">
        <ele>117.9</ele>
        <time>2014-05-18T08:05:08Z</time>
      </trkpt>
      <trkpt lat="50.10524" lon="3.54392">
        <ele>117.9</ele>
        <time>2014-05-18T08:05:09Z</time>
      </trkpt>
      <trkpt lat="50.10519" lon="3.54384">
        <ele>116.94</ele>
        <time>2014-05-18T08:05:10Z</time>
      </trkpt>
      <trkpt lat="50.10515" lon="3.54376">
        <ele>116.94</ele>
        <time>2014-05-18T08:05:11Z</time>
      </trkpt>
      <trkpt lat="50.10513" lon="3.54367">
        <ele>116.94</ele>
        <time>2014-05-18T08:05:12Z</time>
      </trkpt>
      <trkpt lat="50.10515" lon="3.54357">
        <ele>116.94</ele>
        <time>2014-05-18T08:05:13Z</time>
      </trkpt>
      <trkpt lat="50.10518" lon="3.54348">
        <ele>115.98</ele>
        <time>2014-05-18T08:05:14Z</time>
      </trkpt>
      <trkpt lat="50.10521" lon="3.54339">
        <ele>115.98</ele>
        <time>2014-05-18T08:05:15Z</time>
      </trkpt>
      <trkpt lat="50.10524" lon="3.5433">
        <ele>115.5</ele>
        <time>2014-05-18T08:05:16Z</time>
      </trkpt>
      <trkpt lat="50.10536" lon="3.54296">
        <ele>114.53</ele>
        <time>2014-05-18T08:05:20Z</time>
      </trkpt>
      <trkpt lat="50.10538" lon="3.54288">
        <ele>114.05</ele>
        <time>2014-05-18T08:05:21Z</time>
      </trkpt>
      <trkpt lat="50.10543" lon="3.54259">
        <ele>112.61</ele>
        <time>2014-05-18T08:05:26Z</time>
      </trkpt>
      <trkpt lat="50.10567" lon="3.5419">
        <ele>109.25</ele>
        <time>2014-05-18T08:05:33Z</time>
      </trkpt>
      <trkpt lat="50.10587" lon="3.54126">
        <ele>105.88</ele>
        <time>2014-05-18T08:05:39Z</time>
      </trkpt>
      <trkpt lat="50.1064" lon="3.53954">
        <ele>103</ele>
        <time>2014-05-18T08:05:53Z</time>
      </trkpt>
      <trkpt lat="50.10661" lon="3.5388">
        <ele>102.04</ele>
        <time>2014-05-18T08:05:58Z</time>
      </trkpt>
      <trkpt lat="50.10664" lon="3.53865">
        <ele>102.04</ele>
        <time>2014-05-18T08:05:59Z</time>
      </trkpt>
      <trkpt lat="50.10668" lon="3.53821">
        <ele>103</ele>
        <time>2014-05-18T08:06:02Z</time>
      </trkpt>
      <trkpt lat="50.10668" lon="3.53807">
        <ele>103.96</ele>
        <time>2014-05-18T08:06:03Z</time>
      </trkpt>
      <trkpt lat="50.10667" lon="3.53794">
        <ele>103.96</ele>
        <time>2014-05-18T08:06:04Z</time>
      </trkpt>
      <trkpt lat="50.10655" lon="3.53711">
        <ele>107.32</ele>
        <time>2014-05-18T08:06:11Z</time>
      </trkpt>
      <trkpt lat="50.10639" lon="3.53607">
        <ele>110.69</ele>
        <time>2014-05-18T08:06:21Z</time>
      </trkpt>
      <trkpt lat="50.10638" lon="3.53598">
        <ele>110.69</ele>
        <time>2014-05-18T08:06:22Z</time>
      </trkpt>
      <trkpt lat="50.10629" lon="3.53542">
        <ele>112.61</ele>
        <time>2014-05-18T08:06:29Z</time>
      </trkpt>
      <trkpt lat="50.10629" lon="3.53534">
        <ele>112.61</ele>
        <time>2014-05-18T08:06:30Z</time>
      </trkpt>
      <trkpt lat="50.10628" lon="3.53526">
        <ele>113.09</ele>
        <time>2014-05-18T08:06:31Z</time>
      </trkpt>
      <trkpt lat="50.10622" lon="3.53491">
        <ele>114.05</ele>
        <time>2014-05-18T08:06:36Z</time>
      </trkpt>
      <trkpt lat="50.10618" lon="3.5347">
        <ele>115.01</ele>
        <time>2014-05-18T08:06:39Z</time>
      </trkpt>
      <trkpt lat="50.10617" lon="3.53463">
        <ele>115.5</ele>
        <time>2014-05-18T08:06:40Z</time>
      </trkpt>
      <trkpt lat="50.10615" lon="3.53457">
        <ele>115.5</ele>
        <time>2014-05-18T08:06:41Z</time>
      </trkpt>
      <trkpt lat="50.10613" lon="3.53451">
        <ele>115.98</ele>
        <time>2014-05-18T08:06:42Z</time>
      </trkpt>
      <trkpt lat="50.1061" lon="3.53446">
        <ele>115.98</ele>
        <time>2014-05-18T08:06:43Z</time>
      </trkpt>
      <trkpt lat="50.10609" lon="3.5344">
        <ele>115.98</ele>
        <time>2014-05-18T08:06:44Z</time>
      </trkpt>
      <trkpt lat="50.10608" lon="3.53433">
        <ele>116.46</ele>
        <time>2014-05-18T08:06:45Z</time>
      </trkpt>
      <trkpt lat="50.10602" lon="3.53377">
        <ele>117.9</ele>
        <time>2014-05-18T08:06:54Z</time>
      </trkpt>
      <trkpt lat="50.106" lon="3.53372">
        <ele>118.38</ele>
        <time>2014-05-18T08:06:55Z</time>
      </trkpt>
      <trkpt lat="50.10596" lon="3.53368">
        <ele>118.38</ele>
        <time>2014-05-18T08:06:56Z</time>
      </trkpt>
      <trkpt lat="50.10593" lon="3.53366">
        <ele>118.86</ele>
        <time>2014-05-18T08:06:57Z</time>
      </trkpt>
      <trkpt lat="50.1059" lon="3.53365">
        <ele>118.86</ele>
        <time>2014-05-18T08:06:58Z</time>
      </trkpt>
      <trkpt lat="50.10545" lon="3.53333">
        <ele>120.78</ele>
        <time>2014-05-18T08:07:12Z</time>
      </trkpt>
      <trkpt lat="50.10522" lon="3.53288">
        <ele>123.67</ele>
        <time>2014-05-18T08:07:25Z</time>
      </trkpt>
      <trkpt lat="50.10508" lon="3.53242">
        <ele>125.59</ele>
        <time>2014-05-18T08:07:38Z</time>
      </trkpt>
      <trkpt lat="50.10483" lon="3.53174">
        <ele>127.51</ele>
        <time>2014-05-18T08:07:55Z</time>
      </trkpt>
      <trkpt lat="50.10461" lon="3.53122">
        <ele>129.43</ele>
        <time>2014-05-18T08:08:08Z</time>
      </trkpt>
      <trkpt lat="50.10466" lon="3.53074">
        <ele>131.36</ele>
        <time>2014-05-18T08:08:20Z</time>
      </trkpt>
      <trkpt lat="50.10503" lon="3.53033">
        <ele>133.76</ele>
        <time>2014-05-18T08:08:37Z</time>
      </trkpt>
      <trkpt lat="50.10509" lon="3.52972">
        <ele>135.2</ele>
        <time>2014-05-18T08:08:50Z</time>
      </trkpt>
      <trkpt lat="50.10507" lon="3.52959">
        <ele>135.68</ele>
        <time>2014-05-18T08:08:53Z</time>
      </trkpt>
      <trkpt lat="50.10505" lon="3.52949">
        <ele>136.16</ele>
        <time>2014-05-18T08:09:07Z</time>
      </trkpt>
      <trkpt lat="50.1048" lon="3.52871">
        <ele>136.64</ele>
        <time>2014-05-18T08:09:22Z</time>
      </trkpt>
      <trkpt lat="50.10459" lon="3.52789">
        <ele>138.09</ele>
        <time>2014-05-18T08:09:37Z</time>
      </trkpt>
      <trkpt lat="50.10432" lon="3.5269">
        <ele>140.01</ele>
        <time>2014-05-18T08:09:55Z</time>
      </trkpt>
      <trkpt lat="50.10406" lon="3.52609">
        <ele>141.93</ele>
        <time>2014-05-18T08:10:11Z</time>
      </trkpt>
      <trkpt lat="50.10388" lon="3.52539">
        <ele>142.89</ele>
        <time>2014-05-18T08:10:25Z</time>
      </trkpt>
      <trkpt lat="50.10374" lon="3.5245">
        <ele>144.82</ele>
        <time>2014-05-18T08:10:41Z</time>
      </trkpt>
      <trkpt lat="50.1037" lon="3.52435">
        <ele>144.82</ele>
        <time>2014-05-18T08:10:47Z</time>
      </trkpt>
      <trkpt lat="50.10372" lon="3.52434">
        <ele>144.82</ele>
        <time>2014-05-18T08:10:48Z</time>
      </trkpt>
      <trkpt lat="50.10373" lon="3.52432">
        <ele>144.82</ele>
        <time>2014-05-18T08:10:49Z</time>
      </trkpt>
      <trkpt lat="50.10375" lon="3.52428">
        <ele>144.82</ele>
        <time>2014-05-18T08:10:50Z</time>
      </trkpt>
      <trkpt lat="50.10376" lon="3.52423">
        <ele>144.82</ele>
        <time>2014-05-18T08:10:51Z</time>
      </trkpt>
      <trkpt lat="50.10377" lon="3.52417">
        <ele>144.82</ele>
        <time>2014-05-18T08:10:52Z</time>
      </trkpt>
      <trkpt lat="50.10388" lon="3.52347">
        <ele>141.93</ele>
        <time>2014-05-18T08:11:02Z</time>
      </trkpt>
      <trkpt lat="50.10402" lon="3.52265">
        <ele>138.57</ele>
        <time>2014-05-18T08:11:10Z</time>
      </trkpt>
      <trkpt lat="50.10411" lon="3.52186">
        <ele>136.64</ele>
        <time>2014-05-18T08:11:17Z</time>
      </trkpt>
      <trkpt lat="50.1041" lon="3.52176">
        <ele>136.16</ele>
        <time>2014-05-18T08:11:18Z</time>
      </trkpt>
      <trkpt lat="50.10407" lon="3.52145">
        <ele>136.16</ele>
        <time>2014-05-18T08:11:21Z</time>
      </trkpt>
      <trkpt lat="50.10405" lon="3.52136">
        <ele>135.68</ele>
        <time>2014-05-18T08:11:22Z</time>
      </trkpt>
      <trkpt lat="50.10384" lon="3.52065">
        <ele>135.2</ele>
        <time>2014-05-18T08:11:31Z</time>
      </trkpt>
      <trkpt lat="50.10379" lon="3.52052">
        <ele>134.72</ele>
        <time>2014-05-18T08:11:34Z</time>
      </trkpt>
      <trkpt lat="50.10378" lon="3.52048">
        <ele>134.72</ele>
        <time>2014-05-18T08:11:37Z</time>
      </trkpt>
      <trkpt lat="50.10378" lon="3.52046">
        <ele>134.72</ele>
        <time>2014-05-18T08:11:38Z</time>
      </trkpt>
      <trkpt lat="50.10377" lon="3.52044">
        <ele>134.72</ele>
        <time>2014-05-18T08:11:39Z</time>
      </trkpt>
      <trkpt lat="50.10376" lon="3.52041">
        <ele>134.72</ele>
        <time>2014-05-18T08:11:40Z</time>
      </trkpt>
      <trkpt lat="50.10375" lon="3.52039">
        <ele>134.72</ele>
        <time>2014-05-18T08:11:41Z</time>
      </trkpt>
      <trkpt lat="50.10368" lon="3.52007">
        <ele>134.72</ele>
        <time>2014-05-18T08:11:51Z</time>
      </trkpt>
      <trkpt lat="50.10367" lon="3.52005">
        <ele>134.72</ele>
        <time>2014-05-18T08:11:52Z</time>
      </trkpt>
      <trkpt lat="50.10357" lon="3.51967">
        <ele>134.72</ele>
        <time>2014-05-18T08:12:04Z</time>
      </trkpt>
      <trkpt lat="50.10351" lon="3.51917">
        <ele>134.72</ele>
        <time>2014-05-18T08:12:17Z</time>
      </trkpt>
      <trkpt lat="50.10347" lon="3.51841">
        <ele>134.72</ele>
        <time>2014-05-18T08:12:30Z</time>
      </trkpt>
      <trkpt lat="50.10346" lon="3.51828">
        <ele>134.72</ele>
        <time>2014-05-18T08:12:32Z</time>
      </trkpt>
      <trkpt lat="50.10345" lon="3.51821">
        <ele>134.72</ele>
        <time>2014-05-18T08:12:33Z</time>
      </trkpt>
      <trkpt lat="50.10344" lon="3.51802">
        <ele>134.72</ele>
        <time>2014-05-18T08:12:36Z</time>
      </trkpt>
      <trkpt lat="50.10344" lon="3.51765">
        <ele>135.68</ele>
        <time>2014-05-18T08:12:42Z</time>
      </trkpt>
      <trkpt lat="50.10342" lon="3.51695">
        <ele>136.16</ele>
        <time>2014-05-18T08:12:54Z</time>
      </trkpt>
      <trkpt lat="50.10343" lon="3.51605">
        <ele>137.61</ele>
        <time>2014-05-18T08:13:09Z</time>
      </trkpt>
      <trkpt lat="50.10345" lon="3.51546">
        <ele>139.53</ele>
        <time>2014-05-18T08:13:22Z</time>
      </trkpt>
      <trkpt lat="50.10345" lon="3.51543">
        <ele>139.53</ele>
        <time>2014-05-18T08:13:23Z</time>
      </trkpt>
      <trkpt lat="50.10345" lon="3.5154">
        <ele>140.01</ele>
        <time>2014-05-18T08:13:24Z</time>
      </trkpt>
      <trkpt lat="50.10347" lon="3.51526">
        <ele>141.45</ele>
        <time>2014-05-18T08:13:30Z</time>
      </trkpt>
      <trkpt lat="50.10347" lon="3.51523">
        <ele>141.45</ele>
        <time>2014-05-18T08:13:32Z</time>
      </trkpt>
      <trkpt lat="50.10347" lon="3.5152">
        <ele>141.93</ele>
        <time>2014-05-18T08:13:33Z</time>
      </trkpt>
      <trkpt lat="50.10346" lon="3.51516">
        <ele>141.93</ele>
        <time>2014-05-18T08:13:34Z</time>
      </trkpt>
      <trkpt lat="50.10345" lon="3.51512">
        <ele>141.93</ele>
        <time>2014-05-18T08:13:35Z</time>
      </trkpt>
      <trkpt lat="50.10343" lon="3.51509">
        <ele>141.93</ele>
        <time>2014-05-18T08:13:36Z</time>
      </trkpt>
      <trkpt lat="50.10342" lon="3.51505">
        <ele>141.93</ele>
        <time>2014-05-18T08:13:37Z</time>
      </trkpt>
      <trkpt lat="50.1034" lon="3.51502">
        <ele>141.93</ele>
        <time>2014-05-18T08:13:38Z</time>
      </trkpt>
      <trkpt lat="50.10321" lon="3.51451">
        <ele>141.45</ele>
        <time>2014-05-18T08:13:50Z</time>
      </trkpt>
      <trkpt lat="50.10315" lon="3.5138">
        <ele>141.45</ele>
        <time>2014-05-18T08:14:02Z</time>
      </trkpt>
      <trkpt lat="50.10314" lon="3.51354">
        <ele>141.45</ele>
        <time>2014-05-18T08:14:06Z</time>
      </trkpt>
      <trkpt lat="50.10313" lon="3.51348">
        <ele>141.45</ele>
        <time>2014-05-18T08:14:07Z</time>
      </trkpt>
      <trkpt lat="50.10312" lon="3.51341">
        <ele>141.45</ele>
        <time>2014-05-18T08:14:08Z</time>
      </trkpt>
      <trkpt lat="50.10309" lon="3.51316">
        <ele>141.45</ele>
        <time>2014-05-18T08:14:12Z</time>
      </trkpt>
      <trkpt lat="50.1029" lon="3.51184">
        <ele>141.93</ele>
        <time>2014-05-18T08:14:31Z</time>
      </trkpt>
      <trkpt lat="50.10288" lon="3.51131">
        <ele>142.41</ele>
        <time>2014-05-18T08:14:38Z</time>
      </trkpt>
      <trkpt lat="50.10288" lon="3.51079">
        <ele>142.89</ele>
        <time>2014-05-18T08:14:45Z</time>
      </trkpt>
      <trkpt lat="50.10287" lon="3.51071">
        <ele>142.89</ele>
        <time>2014-05-18T08:14:46Z</time>
      </trkpt>
      <trkpt lat="50.10286" lon="3.51064">
        <ele>142.89</ele>
        <time>2014-05-18T08:14:47Z</time>
      </trkpt>
      <trkpt lat="50.10285" lon="3.51057">
        <ele>142.89</ele>
        <time>2014-05-18T08:14:48Z</time>
      </trkpt>
      <trkpt lat="50.10283" lon="3.5105">
        <ele>142.89</ele>
        <time>2014-05-18T08:14:49Z</time>
      </trkpt>
      <trkpt lat="50.10256" lon="3.50929">
        <ele>144.82</ele>
        <time>2014-05-18T08:15:06Z</time>
      </trkpt>
      <trkpt lat="50.1024" lon="3.50828">
        <ele>144.82</ele>
        <time>2014-05-18T08:15:20Z</time>
      </trkpt>
      <trkpt lat="50.10238" lon="3.50821">
        <ele>144.82</ele>
        <time>2014-05-18T08:15:21Z</time>
      </trkpt>
      <trkpt lat="50.10235" lon="3.50798">
        <ele>144.82</ele>
        <time>2014-05-18T08:15:24Z</time>
      </trkpt>
      <trkpt lat="50.10213" lon="3.5072">
        <ele>145.3</ele>
        <time>2014-05-18T08:15:35Z</time>
      </trkpt>
      <trkpt lat="50.10192" lon="3.50657">
        <ele>145.78</ele>
        <time>2014-05-18T08:15:44Z</time>
      </trkpt>
      <trkpt lat="50.1019" lon="3.5065">
        <ele>145.78</ele>
        <time>2014-05-18T08:15:45Z</time>
      </trkpt>
      <trkpt lat="50.10187" lon="3.50562">
        <ele>146.26</ele>
        <time>2014-05-18T08:15:58Z</time>
      </trkpt>
      <trkpt lat="50.10187" lon="3.50565">
        <ele>146.26</ele>
        <time>2014-05-18T08:16:16Z</time>
      </trkpt>
      <trkpt lat="50.10186" lon="3.50564">
        <ele>146.26</ele>
        <time>2014-05-18T08:16:42Z</time>
      </trkpt>
      <trkpt lat="50.10187" lon="3.50564">
        <ele>146.74</ele>
        <time>2014-05-18T08:17:10Z</time>
      </trkpt>
      <trkpt lat="50.10186" lon="3.50565">
        <ele>146.26</ele>
        <time>2014-05-18T08:17:43Z</time>
      </trkpt>
      <trkpt lat="50.10186" lon="3.50565">
        <ele>146.26</ele>
        <time>2014-05-18T08:18:10Z</time>
      </trkpt>
      <trkpt lat="50.10186" lon="3.50564">
        <ele>146.26</ele>
        <time>2014-05-18T08:18:37Z</time>
      </trkpt>
      <trkpt lat="50.10186" lon="3.50564">
        <ele>146.74</ele>
        <time>2014-05-18T08:19:08Z</time>
      </trkpt>
      <trkpt lat="50.10187" lon="3.50565">
        <ele>146.74</ele>
        <time>2014-05-18T08:19:34Z</time>
      </trkpt>
      <trkpt lat="50.10187" lon="3.50566">
        <ele>146.74</ele>
        <time>2014-05-18T08:20:07Z</time>
      </trkpt>
      <trkpt lat="50.10187" lon="3.50564">
        <ele>146.26</ele>
        <time>2014-05-18T08:20:39Z</time>
      </trkpt>
      <trkpt lat="50.10187" lon="3.50565">
        <ele>146.26</ele>
        <time>2014-05-18T08:21:06Z</time>
      </trkpt>
      <trkpt lat="50.10187" lon="3.50565">
        <ele>146.26</ele>
        <time>2014-05-18T08:21:40Z</time>
      </trkpt>
      <trkpt lat="50.10188" lon="3.50565">
        <ele>146.26</ele>
        <time>2014-05-18T08:22:12Z</time>
      </trkpt>
      <trkpt lat="50.10188" lon="3.50564">
        <ele>146.26</ele>
        <time>2014-05-18T08:22:33Z</time>
      </trkpt>
      <trkpt lat="50.10188" lon="3.50562">
        <ele>146.26</ele>
        <time>2014-05-18T08:22:34Z</time>
      </trkpt>
      <trkpt lat="50.10188" lon="3.5056">
        <ele>146.26</ele>
        <time>2014-05-18T08:22:35Z</time>
      </trkpt>
      <trkpt lat="50.10189" lon="3.50554">
        <ele>146.26</ele>
        <time>2014-05-18T08:22:39Z</time>
      </trkpt>
      <trkpt lat="50.10188" lon="3.50552">
        <ele>146.26</ele>
        <time>2014-05-18T08:22:40Z</time>
      </trkpt>
      <trkpt lat="50.10187" lon="3.50551">
        <ele>146.26</ele>
        <time>2014-05-18T08:22:41Z</time>
      </trkpt>
      <trkpt lat="50.10187" lon="3.50549">
        <ele>146.26</ele>
        <time>2014-05-18T08:22:42Z</time>
      </trkpt>
      <trkpt lat="50.10187" lon="3.50546">
        <ele>146.26</ele>
        <time>2014-05-18T08:22:43Z</time>
      </trkpt>
      <trkpt lat="50.10187" lon="3.50544">
        <ele>146.26</ele>
        <time>2014-05-18T08:22:44Z</time>
      </trkpt>
      <trkpt lat="50.10187" lon="3.5054">
        <ele>146.26</ele>
        <time>2014-05-18T08:22:45Z</time>
      </trkpt>
      <trkpt lat="50.10186" lon="3.50469">
        <ele>147.22</ele>
        <time>2014-05-18T08:22:59Z</time>
      </trkpt>
      <trkpt lat="50.10186" lon="3.50424">
        <ele>147.22</ele>
        <time>2014-05-18T08:23:06Z</time>
      </trkpt>
      <trkpt lat="50.10186" lon="3.50417">
        <ele>147.22</ele>
        <time>2014-05-18T08:23:07Z</time>
      </trkpt>
      <trkpt lat="50.10183" lon="3.50297">
        <ele>144.82</ele>
        <time>2014-05-18T08:23:25Z</time>
      </trkpt>
      <trkpt lat="50.10195" lon="3.50145">
        <ele>143.37</ele>
        <time>2014-05-18T08:23:45Z</time>
      </trkpt>
      <trkpt lat="50.10196" lon="3.50128">
        <ele>143.37</ele>
        <time>2014-05-18T08:23:47Z</time>
      </trkpt>
      <trkpt lat="50.10202" lon="3.50091">
        <ele>142.89</ele>
        <time>2014-05-18T08:23:52Z</time>
      </trkpt>
      <trkpt lat="50.10205" lon="3.50071">
        <ele>142.89</ele>
        <time>2014-05-18T08:23:55Z</time>
      </trkpt>
      <trkpt lat="50.10217" lon="3.49993">
        <ele>142.89</ele>
        <time>2014-05-18T08:24:07Z</time>
      </trkpt>
      <trkpt lat="50.10231" lon="3.49888">
        <ele>144.82</ele>
        <time>2014-05-18T08:24:22Z</time>
      </trkpt>
      <trkpt lat="50.10244" lon="3.49771">
        <ele>143.85</ele>
        <time>2014-05-18T08:24:39Z</time>
      </trkpt>
      <trkpt lat="50.10255" lon="3.49658">
        <ele>140.49</ele>
        <time>2014-05-18T08:24:54Z</time>
      </trkpt>
      <trkpt lat="50.10256" lon="3.49644">
        <ele>140.49</ele>
        <time>2014-05-18T08:24:56Z</time>
      </trkpt>
      <trkpt lat="50.10257" lon="3.49637">
        <ele>140.49</ele>
        <time>2014-05-18T08:24:57Z</time>
      </trkpt>
      <trkpt lat="50.10258" lon="3.49603">
        <ele>140.01</ele>
        <time>2014-05-18T08:25:02Z</time>
      </trkpt>
      <trkpt lat="50.10255" lon="3.49484">
        <ele>139.53</ele>
        <time>2014-05-18T08:25:18Z</time>
      </trkpt>
      <trkpt lat="50.10251" lon="3.49399">
        <ele>140.97</ele>
        <time>2014-05-18T08:25:30Z</time>
      </trkpt>
      <trkpt lat="50.1025" lon="3.49392">
        <ele>140.97</ele>
        <time>2014-05-18T08:25:31Z</time>
      </trkpt>
      <trkpt lat="50.10236" lon="3.493">
        <ele>142.89</ele>
        <time>2014-05-18T08:25:45Z</time>
      </trkpt>
      <trkpt lat="50.10235" lon="3.49293">
        <ele>142.89</ele>
        <time>2014-05-18T08:25:46Z</time>
      </trkpt>
      <trkpt lat="50.10234" lon="3.49287">
        <ele>142.89</ele>
        <time>2014-05-18T08:25:47Z</time>
      </trkpt>
      <trkpt lat="50.10233" lon="3.4928">
        <ele>142.89</ele>
        <time>2014-05-18T08:25:48Z</time>
      </trkpt>
      <trkpt lat="50.10232" lon="3.49273">
        <ele>142.89</ele>
        <time>2014-05-18T08:25:49Z</time>
      </trkpt>
      <trkpt lat="50.10231" lon="3.49267">
        <ele>142.89</ele>
        <time>2014-05-18T08:25:50Z</time>
      </trkpt>
      <trkpt lat="50.10208" lon="3.49146">
        <ele>143.37</ele>
        <time>2014-05-18T08:26:07Z</time>
      </trkpt>
      <trkpt lat="50.10205" lon="3.4913">
        <ele>143.37</ele>
        <time>2014-05-18T08:26:09Z</time>
      </trkpt>
      <trkpt lat="50.10205" lon="3.49122">
        <ele>143.37</ele>
        <time>2014-05-18T08:26:10Z</time>
      </trkpt>
      <trkpt lat="50.10205" lon="3.49114">
        <ele>143.37</ele>
        <time>2014-05-18T08:26:11Z</time>
      </trkpt>
      <trkpt lat="50.10206" lon="3.49107">
        <ele>143.37</ele>
        <time>2014-05-18T08:26:12Z</time>
      </trkpt>
      <trkpt lat="50.10207" lon="3.49099">
        <ele>143.37</ele>
        <time>2014-05-18T08:26:13Z</time>
      </trkpt>
      <trkpt lat="50.1021" lon="3.49085">
        <ele>143.37</ele>
        <time>2014-05-18T08:26:15Z</time>
      </trkpt>
      <trkpt lat="50.10212" lon="3.49078">
        <ele>143.37</ele>
        <time>2014-05-18T08:26:16Z</time>
      </trkpt>
      <trkpt lat="50.10213" lon="3.49071">
        <ele>143.37</ele>
        <time>2014-05-18T08:26:17Z</time>
      </trkpt>
      <trkpt lat="50.10242" lon="3.48993">
        <ele>143.85</ele>
        <time>2014-05-18T08:26:29Z</time>
      </trkpt>
      <trkpt lat="50.10274" lon="3.48913">
        <ele>142.41</ele>
        <time>2014-05-18T08:26:42Z</time>
      </trkpt>
      <trkpt lat="50.10283" lon="3.48786">
        <ele>140.01</ele>
        <time>2014-05-18T08:26:58Z</time>
      </trkpt>
      <trkpt lat="50.1028" lon="3.48764">
        <ele>140.01</ele>
        <time>2014-05-18T08:27:01Z</time>
      </trkpt>
      <trkpt lat="50.10274" lon="3.48742">
        <ele>139.53</ele>
        <time>2014-05-18T08:27:04Z</time>
      </trkpt>
      <trkpt lat="50.10271" lon="3.48735">
        <ele>139.53</ele>
        <time>2014-05-18T08:27:05Z</time>
      </trkpt>
      <trkpt lat="50.10256" lon="3.48693">
        <ele>139.53</ele>
        <time>2014-05-18T08:27:11Z</time>
      </trkpt>
      <trkpt lat="50.10254" lon="3.48685">
        <ele>139.53</ele>
        <time>2014-05-18T08:27:12Z</time>
      </trkpt>
      <trkpt lat="50.10253" lon="3.48677">
        <ele>139.53</ele>
        <time>2014-05-18T08:27:13Z</time>
      </trkpt>
      <trkpt lat="50.10252" lon="3.48662">
        <ele>139.53</ele>
        <time>2014-05-18T08:27:15Z</time>
      </trkpt>
      <trkpt lat="50.10252" lon="3.48655">
        <ele>139.53</ele>
        <time>2014-05-18T08:27:16Z</time>
      </trkpt>
      <trkpt lat="50.10254" lon="3.4863">
        <ele>139.53</ele>
        <time>2014-05-18T08:27:21Z</time>
      </trkpt>
      <trkpt lat="50.10255" lon="3.48632">
        <ele>139.53</ele>
        <time>2014-05-18T08:27:22Z</time>
      </trkpt>
      <trkpt lat="50.10255" lon="3.48639">
        <ele>139.53</ele>
        <time>2014-05-18T08:27:24Z</time>
      </trkpt>
      <trkpt lat="50.10255" lon="3.48643">
        <ele>139.53</ele>
        <time>2014-05-18T08:27:25Z</time>
      </trkpt>
      <trkpt lat="50.10255" lon="3.48647">
        <ele>139.53</ele>
        <time>2014-05-18T08:27:26Z</time>
      </trkpt>
      <trkpt lat="50.10255" lon="3.48652">
        <ele>139.53</ele>
        <time>2014-05-18T08:27:27Z</time>
      </trkpt>
      <trkpt lat="50.10252" lon="3.4866">
        <ele>139.53</ele>
        <time>2014-05-18T08:27:29Z</time>
      </trkpt>
      <trkpt lat="50.10249" lon="3.48661">
        <ele>139.53</ele>
        <time>2014-05-18T08:27:30Z</time>
      </trkpt>
      <trkpt lat="50.10247" lon="3.48659">
        <ele>139.53</ele>
        <time>2014-05-18T08:27:31Z</time>
      </trkpt>
      <trkpt lat="50.10246" lon="3.48655">
        <ele>139.53</ele>
        <time>2014-05-18T08:27:32Z</time>
      </trkpt>
      <trkpt lat="50.10244" lon="3.48652">
        <ele>139.53</ele>
        <time>2014-05-18T08:27:33Z</time>
      </trkpt>
      <trkpt lat="50.10243" lon="3.48649">
        <ele>139.53</ele>
        <time>2014-05-18T08:27:34Z</time>
      </trkpt>
      <trkpt lat="50.10237" lon="3.48638">
        <ele>140.49</ele>
        <time>2014-05-18T08:27:38Z</time>
      </trkpt>
      <trkpt lat="50.10212" lon="3.48582">
        <ele>142.41</ele>
        <time>2014-05-18T08:27:52Z</time>
      </trkpt>
      <trkpt lat="50.10185" lon="3.48529">
        <ele>140.97</ele>
        <time>2014-05-18T08:28:03Z</time>
      </trkpt>
      <trkpt lat="50.10176" lon="3.4851">
        <ele>140.01</ele>
        <time>2014-05-18T08:28:06Z</time>
      </trkpt>
      <trkpt lat="50.10156" lon="3.48431">
        <ele>136.64</ele>
        <time>2014-05-18T08:28:15Z</time>
      </trkpt>
      <trkpt lat="50.10148" lon="3.48395">
        <ele>135.2</ele>
        <time>2014-05-18T08:28:20Z</time>
      </trkpt>
      <trkpt lat="50.10129" lon="3.48305">
        <ele>132.8</ele>
        <time>2014-05-18T08:28:34Z</time>
      </trkpt>
      <trkpt lat="50.10117" lon="3.48239">
        <ele>131.84</ele>
        <time>2014-05-18T08:28:47Z</time>
      </trkpt>
      <trkpt lat="50.10102" lon="3.48158">
        <ele>130.88</ele>
        <time>2014-05-18T08:28:59Z</time>
      </trkpt>
      <trkpt lat="50.10089" lon="3.48087">
        <ele>130.88</ele>
        <time>2014-05-18T08:29:12Z</time>
      </trkpt>
      <trkpt lat="50.10082" lon="3.48048">
        <ele>130.88</ele>
        <time>2014-05-18T08:29:23Z</time>
      </trkpt>
      <trkpt lat="50.1008" lon="3.4803">
        <ele>131.84</ele>
        <time>2014-05-18T08:29:27Z</time>
      </trkpt>
      <trkpt lat="50.10065" lon="3.4796">
        <ele>133.76</ele>
        <time>2014-05-18T08:29:42Z</time>
      </trkpt>
      <trkpt lat="50.10047" lon="3.47904">
        <ele>137.13</ele>
        <time>2014-05-18T08:29:55Z</time>
      </trkpt>
      <trkpt lat="50.10017" lon="3.47846">
        <ele>139.53</ele>
        <time>2014-05-18T08:30:09Z</time>
      </trkpt>
      <trkpt lat="50.09992" lon="3.47803">
        <ele>140.01</ele>
        <time>2014-05-18T08:30:22Z</time>
      </trkpt>
      <trkpt lat="50.09988" lon="3.4779">
        <ele>138.57</ele>
        <time>2014-05-18T08:30:25Z</time>
      </trkpt>
      <trkpt lat="50.09984" lon="3.47761">
        <ele>137.13</ele>
        <time>2014-05-18T08:30:30Z</time>
      </trkpt>
      <trkpt lat="50.0997" lon="3.47696">
        <ele>136.16</ele>
        <time>2014-05-18T08:30:41Z</time>
      </trkpt>
      <trkpt lat="50.0997" lon="3.47689">
        <ele>136.16</ele>
        <time>2014-05-18T08:30:42Z</time>
      </trkpt>
      <trkpt lat="50.09971" lon="3.4767">
        <ele>135.68</ele>
        <time>2014-05-18T08:30:45Z</time>
      </trkpt>
      <trkpt lat="50.09972" lon="3.47656">
        <ele>135.2</ele>
        <time>2014-05-18T08:30:47Z</time>
      </trkpt>
      <trkpt lat="50.09991" lon="3.47552">
        <ele>133.28</ele>
        <time>2014-05-18T08:31:02Z</time>
      </trkpt>
      <trkpt lat="50.09999" lon="3.47525">
        <ele>132.32</ele>
        <time>2014-05-18T08:31:06Z</time>
      </trkpt>
      <trkpt lat="50.10027" lon="3.47424">
        <ele>128.95</ele>
        <time>2014-05-18T08:31:18Z</time>
      </trkpt>
      <trkpt lat="50.10059" lon="3.47296">
        <ele>128.47</ele>
        <time>2014-05-18T08:31:34Z</time>
      </trkpt>
      <trkpt lat="50.10061" lon="3.47287">
        <ele>128.47</ele>
        <time>2014-05-18T08:31:35Z</time>
      </trkpt>
      <trkpt lat="50.10083" lon="3.47195">
        <ele>128.47</ele>
        <time>2014-05-18T08:31:47Z</time>
      </trkpt>
      <trkpt lat="50.10086" lon="3.4718">
        <ele>129.92</ele>
        <time>2014-05-18T08:31:49Z</time>
      </trkpt>
      <trkpt lat="50.10088" lon="3.47173">
        <ele>129.92</ele>
        <time>2014-05-18T08:31:50Z</time>
      </trkpt>
      <trkpt lat="50.10112" lon="3.47076">
        <ele>132.8</ele>
        <time>2014-05-18T08:32:05Z</time>
      </trkpt>
      <trkpt lat="50.10133" lon="3.47012">
        <ele>136.16</ele>
        <time>2014-05-18T08:32:16Z</time>
      </trkpt>
      <trkpt lat="50.10135" lon="3.47006">
        <ele>136.16</ele>
        <time>2014-05-18T08:32:17Z</time>
      </trkpt>
      <trkpt lat="50.10151" lon="3.46952">
        <ele>136.64</ele>
        <time>2014-05-18T08:32:27Z</time>
      </trkpt>
      <trkpt lat="50.10153" lon="3.46945">
        <ele>136.64</ele>
        <time>2014-05-18T08:32:28Z</time>
      </trkpt>
      <trkpt lat="50.10163" lon="3.46908">
        <ele>135.2</ele>
        <time>2014-05-18T08:32:33Z</time>
      </trkpt>
      <trkpt lat="50.10178" lon="3.46854">
        <ele>134.24</ele>
        <time>2014-05-18T08:32:40Z</time>
      </trkpt>
      <trkpt lat="50.10197" lon="3.46795">
        <ele>133.28</ele>
        <time>2014-05-18T08:32:51Z</time>
      </trkpt>
      <trkpt lat="50.10199" lon="3.46785">
        <ele>133.28</ele>
        <time>2014-05-18T08:32:53Z</time>
      </trkpt>
      <trkpt lat="50.10205" lon="3.46721">
        <ele>134.72</ele>
        <time>2014-05-18T08:33:03Z</time>
      </trkpt>
      <trkpt lat="50.10207" lon="3.46692">
        <ele>134.72</ele>
        <time>2014-05-18T08:33:07Z</time>
      </trkpt>
      <trkpt lat="50.10224" lon="3.46601">
        <ele>131.36</ele>
        <time>2014-05-18T08:33:18Z</time>
      </trkpt>
      <trkpt lat="50.10242" lon="3.46487">
        <ele>129.43</ele>
        <time>2014-05-18T08:33:30Z</time>
      </trkpt>
      <trkpt lat="50.10242" lon="3.46333">
        <ele>129.43</ele>
        <time>2014-05-18T08:33:46Z</time>
      </trkpt>
      <trkpt lat="50.10243" lon="3.46272">
        <ele>132.32</ele>
        <time>2014-05-18T08:33:54Z</time>
      </trkpt>
      <trkpt lat="50.10246" lon="3.46243">
        <ele>132.8</ele>
        <time>2014-05-18T08:33:58Z</time>
      </trkpt>
      <trkpt lat="50.10247" lon="3.46235">
        <ele>132.8</ele>
        <time>2014-05-18T08:33:59Z</time>
      </trkpt>
      <trkpt lat="50.10278" lon="3.46121">
        <ele>133.28</ele>
        <time>2014-05-18T08:34:15Z</time>
      </trkpt>
      <trkpt lat="50.10287" lon="3.46099">
        <ele>131.84</ele>
        <time>2014-05-18T08:34:18Z</time>
      </trkpt>
      <trkpt lat="50.10338" lon="3.45996">
        <ele>130.88</ele>
        <time>2014-05-18T08:34:33Z</time>
      </trkpt>
      <trkpt lat="50.10357" lon="3.45962">
        <ele>130.88</ele>
        <time>2014-05-18T08:34:38Z</time>
      </trkpt>
      <trkpt lat="50.10407" lon="3.45868">
        <ele>132.32</ele>
        <time>2014-05-18T08:34:52Z</time>
      </trkpt>
      <trkpt lat="50.10456" lon="3.45793">
        <ele>133.76</ele>
        <time>2014-05-18T08:35:05Z</time>
      </trkpt>
      <trkpt lat="50.10479" lon="3.45774">
        <ele>134.72</ele>
        <time>2014-05-18T08:35:10Z</time>
      </trkpt>
      <trkpt lat="50.10484" lon="3.45772">
        <ele>134.72</ele>
        <time>2014-05-18T08:35:11Z</time>
      </trkpt>
      <trkpt lat="50.10488" lon="3.45769">
        <ele>134.72</ele>
        <time>2014-05-18T08:35:12Z</time>
      </trkpt>
      <trkpt lat="50.10493" lon="3.45767">
        <ele>134.72</ele>
        <time>2014-05-18T08:35:13Z</time>
      </trkpt>
      <trkpt lat="50.10498" lon="3.45765">
        <ele>134.72</ele>
        <time>2014-05-18T08:35:14Z</time>
      </trkpt>
      <trkpt lat="50.10502" lon="3.45763">
        <ele>134.72</ele>
        <time>2014-05-18T08:35:15Z</time>
      </trkpt>
      <trkpt lat="50.10516" lon="3.45756">
        <ele>134.72</ele>
        <time>2014-05-18T08:35:18Z</time>
      </trkpt>
      <trkpt lat="50.10544" lon="3.45736">
        <ele>135.2</ele>
        <time>2014-05-18T08:35:24Z</time>
      </trkpt>
      <trkpt lat="50.10568" lon="3.45703">
        <ele>133.76</ele>
        <time>2014-05-18T08:35:30Z</time>
      </trkpt>
      <trkpt lat="50.10578" lon="3.45686">
        <ele>133.76</ele>
        <time>2014-05-18T08:35:33Z</time>
      </trkpt>
      <trkpt lat="50.10614" lon="3.45608">
        <ele>132.8</ele>
        <time>2014-05-18T08:35:46Z</time>
      </trkpt>
      <trkpt lat="50.10623" lon="3.45537">
        <ele>132.8</ele>
        <time>2014-05-18T08:35:56Z</time>
      </trkpt>
      <trkpt lat="50.10626" lon="3.45496">
        <ele>132.32</ele>
        <time>2014-05-18T08:36:02Z</time>
      </trkpt>
      <trkpt lat="50.10627" lon="3.45489">
        <ele>132.32</ele>
        <time>2014-05-18T08:36:03Z</time>
      </trkpt>
      <trkpt lat="50.10663" lon="3.4537">
        <ele>131.36</ele>
        <time>2014-05-18T08:36:21Z</time>
      </trkpt>
      <trkpt lat="50.10705" lon="3.45269">
        <ele>130.88</ele>
        <time>2014-05-18T08:36:38Z</time>
      </trkpt>
      <trkpt lat="50.10747" lon="3.45192">
        <ele>130.4</ele>
        <time>2014-05-18T08:36:52Z</time>
      </trkpt>
      <trkpt lat="50.1075" lon="3.45186">
        <ele>130.4</ele>
        <time>2014-05-18T08:36:53Z</time>
      </trkpt>
      <trkpt lat="50.10753" lon="3.4518">
        <ele>130.4</ele>
        <time>2014-05-18T08:36:54Z</time>
      </trkpt>
      <trkpt lat="50.1077" lon="3.45149">
        <ele>129.92</ele>
        <time>2014-05-18T08:36:59Z</time>
      </trkpt>
      <trkpt lat="50.10773" lon="3.45142">
        <ele>129.92</ele>
        <time>2014-05-18T08:37:00Z</time>
      </trkpt>
      <trkpt lat="50.10779" lon="3.45128">
        <ele>129.92</ele>
        <time>2014-05-18T08:37:02Z</time>
      </trkpt>
      <trkpt lat="50.10783" lon="3.45122">
        <ele>129.92</ele>
        <time>2014-05-18T08:37:03Z</time>
      </trkpt>
      <trkpt lat="50.10843" lon="3.45055">
        <ele>129.92</ele>
        <time>2014-05-18T08:37:17Z</time>
      </trkpt>
      <trkpt lat="50.10931" lon="3.44959">
        <ele>128.95</ele>
        <time>2014-05-18T08:37:35Z</time>
      </trkpt>
      <trkpt lat="50.10992" lon="3.44918">
        <ele>128.95</ele>
        <time>2014-05-18T08:37:46Z</time>
      </trkpt>
      <trkpt lat="50.10997" lon="3.44913">
        <ele>128.95</ele>
        <time>2014-05-18T08:37:47Z</time>
      </trkpt>
      <trkpt lat="50.11006" lon="3.449">
        <ele>128.95</ele>
        <time>2014-05-18T08:37:49Z</time>
      </trkpt>
      <trkpt lat="50.1101" lon="3.44892">
        <ele>128.95</ele>
        <time>2014-05-18T08:37:50Z</time>
      </trkpt>
      <trkpt lat="50.11019" lon="3.44868">
        <ele>128.95</ele>
        <time>2014-05-18T08:37:53Z</time>
      </trkpt>
      <trkpt lat="50.11021" lon="3.44859">
        <ele>128.95</ele>
        <time>2014-05-18T08:37:54Z</time>
      </trkpt>
      <trkpt lat="50.11023" lon="3.44849">
        <ele>128.95</ele>
        <time>2014-05-18T08:37:55Z</time>
      </trkpt>
      <trkpt lat="50.11025" lon="3.4484">
        <ele>128.95</ele>
        <time>2014-05-18T08:37:56Z</time>
      </trkpt>
      <trkpt lat="50.11026" lon="3.44831">
        <ele>128.95</ele>
        <time>2014-05-18T08:37:57Z</time>
      </trkpt>
      <trkpt lat="50.11055" lon="3.44687">
        <ele>128.47</ele>
        <time>2014-05-18T08:38:12Z</time>
      </trkpt>
      <trkpt lat="50.11068" lon="3.44616">
        <ele>128.47</ele>
        <time>2014-05-18T08:38:20Z</time>
      </trkpt>
      <trkpt lat="50.11067" lon="3.44605">
        <ele>128.47</ele>
        <time>2014-05-18T08:38:21Z</time>
      </trkpt>
      <trkpt lat="50.11065" lon="3.44599">
        <ele>128.47</ele>
        <time>2014-05-18T08:38:22Z</time>
      </trkpt>
      <trkpt lat="50.1106" lon="3.44585">
        <ele>128.47</ele>
        <time>2014-05-18T08:38:24Z</time>
      </trkpt>
      <trkpt lat="50.11058" lon="3.44577">
        <ele>128.47</ele>
        <time>2014-05-18T08:38:25Z</time>
      </trkpt>
      <trkpt lat="50.11057" lon="3.44569">
        <ele>128.47</ele>
        <time>2014-05-18T08:38:26Z</time>
      </trkpt>
      <trkpt lat="50.11065" lon="3.44448">
        <ele>127.51</ele>
        <time>2014-05-18T08:38:40Z</time>
      </trkpt>
      <trkpt lat="50.11071" lon="3.44343">
        <ele>127.03</ele>
        <time>2014-05-18T08:38:51Z</time>
      </trkpt>
      <trkpt lat="50.11072" lon="3.44334">
        <ele>127.03</ele>
        <time>2014-05-18T08:38:52Z</time>
      </trkpt>
      <trkpt lat="50.11073" lon="3.44175">
        <ele>127.03</ele>
        <time>2014-05-18T08:39:08Z</time>
      </trkpt>
      <trkpt lat="50.11074" lon="3.44147">
        <ele>127.03</ele>
        <time>2014-05-18T08:39:11Z</time>
      </trkpt>
      <trkpt lat="50.11074" lon="3.44137">
        <ele>127.03</ele>
        <time>2014-05-18T08:39:12Z</time>
      </trkpt>
      <trkpt lat="50.11069" lon="3.44038">
        <ele>127.03</ele>
        <time>2014-05-18T08:39:23Z</time>
      </trkpt>
      <trkpt lat="50.11067" lon="3.44031">
        <ele>127.03</ele>
        <time>2014-05-18T08:39:24Z</time>
      </trkpt>
      <trkpt lat="50.11065" lon="3.44023">
        <ele>127.03</ele>
        <time>2014-05-18T08:39:25Z</time>
      </trkpt>
      <trkpt lat="50.11064" lon="3.44016">
        <ele>127.03</ele>
        <time>2014-05-18T08:39:26Z</time>
      </trkpt>
      <trkpt lat="50.11063" lon="3.44009">
        <ele>127.03</ele>
        <time>2014-05-18T08:39:27Z</time>
      </trkpt>
      <trkpt lat="50.11062" lon="3.44001">
        <ele>127.03</ele>
        <time>2014-05-18T08:39:28Z</time>
      </trkpt>
      <trkpt lat="50.11059" lon="3.43971">
        <ele>128.47</ele>
        <time>2014-05-18T08:39:32Z</time>
      </trkpt>
      <trkpt lat="50.11054" lon="3.43857">
        <ele>129.43</ele>
        <time>2014-05-18T08:39:47Z</time>
      </trkpt>
      <trkpt lat="50.11055" lon="3.43769">
        <ele>129.43</ele>
        <time>2014-05-18T08:39:58Z</time>
      </trkpt>
      <trkpt lat="50.11055" lon="3.43761">
        <ele>129.43</ele>
        <time>2014-05-18T08:39:59Z</time>
      </trkpt>
      <trkpt lat="50.11055" lon="3.43752">
        <ele>129.43</ele>
        <time>2014-05-18T08:40:00Z</time>
      </trkpt>
      <trkpt lat="50.11061" lon="3.43594">
        <ele>127.51</ele>
        <time>2014-05-18T08:40:19Z</time>
      </trkpt>
      <trkpt lat="50.11063" lon="3.43541">
        <ele>127.03</ele>
        <time>2014-05-18T08:40:25Z</time>
      </trkpt>
      <trkpt lat="50.11076" lon="3.43426">
        <ele>125.11</ele>
        <time>2014-05-18T08:40:38Z</time>
      </trkpt>
      <trkpt lat="50.11113" lon="3.43303">
        <ele>124.63</ele>
        <time>2014-05-18T08:40:54Z</time>
      </trkpt>
      <trkpt lat="50.11117" lon="3.43297">
        <ele>124.63</ele>
        <time>2014-05-18T08:40:55Z</time>
      </trkpt>
      <trkpt lat="50.11164" lon="3.43199">
        <ele>126.07</ele>
        <time>2014-05-18T08:41:10Z</time>
      </trkpt>
      <trkpt lat="50.11199" lon="3.43096">
        <ele>128.95</ele>
        <time>2014-05-18T08:41:26Z</time>
      </trkpt>
      <trkpt lat="50.11207" lon="3.43071">
        <ele>129.92</ele>
        <time>2014-05-18T08:41:30Z</time>
      </trkpt>
      <trkpt lat="50.11209" lon="3.43064">
        <ele>129.92</ele>
        <time>2014-05-18T08:41:31Z</time>
      </trkpt>
      <trkpt lat="50.1121" lon="3.43058">
        <ele>130.4</ele>
        <time>2014-05-18T08:41:32Z</time>
      </trkpt>
      <trkpt lat="50.11212" lon="3.43051">
        <ele>130.4</ele>
        <time>2014-05-18T08:41:33Z</time>
      </trkpt>
      <trkpt lat="50.11215" lon="3.43046">
        <ele>131.36</ele>
        <time>2014-05-18T08:41:34Z</time>
      </trkpt>
      <trkpt lat="50.11217" lon="3.4304">
        <ele>131.84</ele>
        <time>2014-05-18T08:41:35Z</time>
      </trkpt>
      <trkpt lat="50.11234" lon="3.42971">
        <ele>134.24</ele>
        <time>2014-05-18T08:41:47Z</time>
      </trkpt>
      <trkpt lat="50.1123" lon="3.42949">
        <ele>134.24</ele>
        <time>2014-05-18T08:41:51Z</time>
      </trkpt>
      <trkpt lat="50.11227" lon="3.42944">
        <ele>134.24</ele>
        <time>2014-05-18T08:41:52Z</time>
      </trkpt>
      <trkpt lat="50.11224" lon="3.4294">
        <ele>134.24</ele>
        <time>2014-05-18T08:41:53Z</time>
      </trkpt>
      <trkpt lat="50.11216" lon="3.42934">
        <ele>132.8</ele>
        <time>2014-05-18T08:41:55Z</time>
      </trkpt>
      <trkpt lat="50.11211" lon="3.42931">
        <ele>132.8</ele>
        <time>2014-05-18T08:41:56Z</time>
      </trkpt>
      <trkpt lat="50.11158" lon="3.42885">
        <ele>130.88</ele>
        <time>2014-05-18T08:42:06Z</time>
      </trkpt>
      <trkpt lat="50.11142" lon="3.42863">
        <ele>129.92</ele>
        <time>2014-05-18T08:42:09Z</time>
      </trkpt>
      <trkpt lat="50.11127" lon="3.42837">
        <ele>128.95</ele>
        <time>2014-05-18T08:42:12Z</time>
      </trkpt>
      <trkpt lat="50.11123" lon="3.42826">
        <ele>128.95</ele>
        <time>2014-05-18T08:42:13Z</time>
      </trkpt>
      <trkpt lat="50.11121" lon="3.42814">
        <ele>128.95</ele>
        <time>2014-05-18T08:42:14Z</time>
      </trkpt>
      <trkpt lat="50.11119" lon="3.42802">
        <ele>128.95</ele>
        <time>2014-05-18T08:42:15Z</time>
      </trkpt>
      <trkpt lat="50.11119" lon="3.42786">
        <ele>128.47</ele>
        <time>2014-05-18T08:42:16Z</time>
      </trkpt>
      <trkpt lat="50.11121" lon="3.42775">
        <ele>128.47</ele>
        <time>2014-05-18T08:42:17Z</time>
      </trkpt>
      <trkpt lat="50.11122" lon="3.42764">
        <ele>128.47</ele>
        <time>2014-05-18T08:42:18Z</time>
      </trkpt>
      <trkpt lat="50.11125" lon="3.42752">
        <ele>128.47</ele>
        <time>2014-05-18T08:42:19Z</time>
      </trkpt>
      <trkpt lat="50.11128" lon="3.4274">
        <ele>128.47</ele>
        <time>2014-05-18T08:42:20Z</time>
      </trkpt>
      <trkpt lat="50.11145" lon="3.42667">
        <ele>130.88</ele>
        <time>2014-05-18T08:42:26Z</time>
      </trkpt>
      <trkpt lat="50.1115" lon="3.42643">
        <ele>131.36</ele>
        <time>2014-05-18T08:42:28Z</time>
      </trkpt>
      <trkpt lat="50.11153" lon="3.42631">
        <ele>131.36</ele>
        <time>2014-05-18T08:42:29Z</time>
      </trkpt>
      <trkpt lat="50.11156" lon="3.42619">
        <ele>132.32</ele>
        <time>2014-05-18T08:42:30Z</time>
      </trkpt>
      <trkpt lat="50.11158" lon="3.42608">
        <ele>132.8</ele>
        <time>2014-05-18T08:42:31Z</time>
      </trkpt>
      <trkpt lat="50.11161" lon="3.42597">
        <ele>134.24</ele>
        <time>2014-05-18T08:42:32Z</time>
      </trkpt>
      <trkpt lat="50.11163" lon="3.42587">
        <ele>134.24</ele>
        <time>2014-05-18T08:42:33Z</time>
      </trkpt>
      <trkpt lat="50.11186" lon="3.42489">
        <ele>136.64</ele>
        <time>2014-05-18T08:42:45Z</time>
      </trkpt>
      <trkpt lat="50.11212" lon="3.42375">
        <ele>138.57</ele>
        <time>2014-05-18T08:43:01Z</time>
      </trkpt>
      <trkpt lat="50.11213" lon="3.42369">
        <ele>138.57</ele>
        <time>2014-05-18T08:43:02Z</time>
      </trkpt>
      <trkpt lat="50.11216" lon="3.42358">
        <ele>139.05</ele>
        <time>2014-05-18T08:43:04Z</time>
      </trkpt>
      <trkpt lat="50.11235" lon="3.4227">
        <ele>140.49</ele>
        <time>2014-05-18T08:43:19Z</time>
      </trkpt>
      <trkpt lat="50.11239" lon="3.42252">
        <ele>140.49</ele>
        <time>2014-05-18T08:43:22Z</time>
      </trkpt>
      <trkpt lat="50.11244" lon="3.42226">
        <ele>140.97</ele>
        <time>2014-05-18T08:43:26Z</time>
      </trkpt>
      <trkpt lat="50.11271" lon="3.4211">
        <ele>141.45</ele>
        <time>2014-05-18T08:43:43Z</time>
      </trkpt>
      <trkpt lat="50.11279" lon="3.42077">
        <ele>141.45</ele>
        <time>2014-05-18T08:43:50Z</time>
      </trkpt>
      <trkpt lat="50.1128" lon="3.42073">
        <ele>141.45</ele>
        <time>2014-05-18T08:44:01Z</time>
      </trkpt>
      <trkpt lat="50.11275" lon="3.42068">
        <ele>141.45</ele>
        <time>2014-05-18T08:44:37Z</time>
      </trkpt>
      <trkpt lat="50.11273" lon="3.42064">
        <ele>141.45</ele>
        <time>2014-05-18T08:45:20Z</time>
      </trkpt>
      <trkpt lat="50.11276" lon="3.42063">
        <ele>141.45</ele>
        <time>2014-05-18T08:45:58Z</time>
      </trkpt>
      <trkpt lat="50.11276" lon="3.42067">
        <ele>141.45</ele>
        <time>2014-05-18T08:46:33Z</time>
      </trkpt>
      <trkpt lat="50.11276" lon="3.4207">
        <ele>141.45</ele>
        <time>2014-05-18T08:46:59Z</time>
      </trkpt>
      <trkpt lat="50.11279" lon="3.42072">
        <ele>141.45</ele>
        <time>2014-05-18T08:47:29Z</time>
      </trkpt>
      <trkpt lat="50.11279" lon="3.42071">
        <ele>141.45</ele>
        <time>2014-05-18T08:48:00Z</time>
      </trkpt>
      <trkpt lat="50.11279" lon="3.42072">
        <ele>141.45</ele>
        <time>2014-05-18T08:48:27Z</time>
      </trkpt>
      <trkpt lat="50.11281" lon="3.42071">
        <ele>141.93</ele>
        <time>2014-05-18T08:48:54Z</time>
      </trkpt>
      <trkpt lat="50.11288" lon="3.42027">
        <ele>141.93</ele>
        <time>2014-05-18T08:49:05Z</time>
      </trkpt>
      <trkpt lat="50.11299" lon="3.41978">
        <ele>141.93</ele>
        <time>2014-05-18T08:49:14Z</time>
      </trkpt>
      <trkpt lat="50.11316" lon="3.41902">
        <ele>140.49</ele>
        <time>2014-05-18T08:49:25Z</time>
      </trkpt>
      <trkpt lat="50.1133" lon="3.41841">
        <ele>139.05</ele>
        <time>2014-05-18T08:49:33Z</time>
      </trkpt>
      <trkpt lat="50.11331" lon="3.41832">
        <ele>139.05</ele>
        <time>2014-05-18T08:49:34Z</time>
      </trkpt>
      <trkpt lat="50.11332" lon="3.41824">
        <ele>139.05</ele>
        <time>2014-05-18T08:49:35Z</time>
      </trkpt>
      <trkpt lat="50.11332" lon="3.41816">
        <ele>139.05</ele>
        <time>2014-05-18T08:49:36Z</time>
      </trkpt>
      <trkpt lat="50.11332" lon="3.41808">
        <ele>139.05</ele>
        <time>2014-05-18T08:49:37Z</time>
      </trkpt>
      <trkpt lat="50.1133" lon="3.41799">
        <ele>139.05</ele>
        <time>2014-05-18T08:49:38Z</time>
      </trkpt>
      <trkpt lat="50.11328" lon="3.4179">
        <ele>139.05</ele>
        <time>2014-05-18T08:49:39Z</time>
      </trkpt>
      <trkpt lat="50.11325" lon="3.41782">
        <ele>139.05</ele>
        <time>2014-05-18T08:49:40Z</time>
      </trkpt>
      <trkpt lat="50.11322" lon="3.41773">
        <ele>139.05</ele>
        <time>2014-05-18T08:49:41Z</time>
      </trkpt>
      <trkpt lat="50.11318" lon="3.41766">
        <ele>139.05</ele>
        <time>2014-05-18T08:49:42Z</time>
      </trkpt>
      <trkpt lat="50.11315" lon="3.41758">
        <ele>139.05</ele>
        <time>2014-05-18T08:49:43Z</time>
      </trkpt>
      <trkpt lat="50.1129" lon="3.41704">
        <ele>139.05</ele>
        <time>2014-05-18T08:49:50Z</time>
      </trkpt>
      <trkpt lat="50.11288" lon="3.41696">
        <ele>139.05</ele>
        <time>2014-05-18T08:49:51Z</time>
      </trkpt>
      <trkpt lat="50.11287" lon="3.41687">
        <ele>139.53</ele>
        <time>2014-05-18T08:49:52Z</time>
      </trkpt>
      <trkpt lat="50.11286" lon="3.41679">
        <ele>139.05</ele>
        <time>2014-05-18T08:49:53Z</time>
      </trkpt>
      <trkpt lat="50.11286" lon="3.4167">
        <ele>139.05</ele>
        <time>2014-05-18T08:49:54Z</time>
      </trkpt>
      <trkpt lat="50.11287" lon="3.41662">
        <ele>139.05</ele>
        <time>2014-05-18T08:49:55Z</time>
      </trkpt>
      <trkpt lat="50.11289" lon="3.41654">
        <ele>139.05</ele>
        <time>2014-05-18T08:49:56Z</time>
      </trkpt>
      <trkpt lat="50.11291" lon="3.41647">
        <ele>139.53</ele>
        <time>2014-05-18T08:49:57Z</time>
      </trkpt>
      <trkpt lat="50.11294" lon="3.4164">
        <ele>139.05</ele>
        <time>2014-05-18T08:49:58Z</time>
      </trkpt>
      <trkpt lat="50.11298" lon="3.41634">
        <ele>139.05</ele>
        <time>2014-05-18T08:49:59Z</time>
      </trkpt>
      <trkpt lat="50.11302" lon="3.41628">
        <ele>139.05</ele>
        <time>2014-05-18T08:50:00Z</time>
      </trkpt>
      <trkpt lat="50.11307" lon="3.41623">
        <ele>139.05</ele>
        <time>2014-05-18T08:50:01Z</time>
      </trkpt>
      <trkpt lat="50.11313" lon="3.41619">
        <ele>139.05</ele>
        <time>2014-05-18T08:50:02Z</time>
      </trkpt>
      <trkpt lat="50.11317" lon="3.41613">
        <ele>139.05</ele>
        <time>2014-05-18T08:50:03Z</time>
      </trkpt>
      <trkpt lat="50.11319" lon="3.41605">
        <ele>139.05</ele>
        <time>2014-05-18T08:50:04Z</time>
      </trkpt>
      <trkpt lat="50.11318" lon="3.41598">
        <ele>139.05</ele>
        <time>2014-05-18T08:50:05Z</time>
      </trkpt>
      <trkpt lat="50.11314" lon="3.41591">
        <ele>139.05</ele>
        <time>2014-05-18T08:50:06Z</time>
      </trkpt>
      <trkpt lat="50.11309" lon="3.41586">
        <ele>139.05</ele>
        <time>2014-05-18T08:50:07Z</time>
      </trkpt>
      <trkpt lat="50.11305" lon="3.41582">
        <ele>139.05</ele>
        <time>2014-05-18T08:50:08Z</time>
      </trkpt>
      <trkpt lat="50.11301" lon="3.41577">
        <ele>139.05</ele>
        <time>2014-05-18T08:50:09Z</time>
      </trkpt>
      <trkpt lat="50.11298" lon="3.41571">
        <ele>139.05</ele>
        <time>2014-05-18T08:50:10Z</time>
      </trkpt>
      <trkpt lat="50.11294" lon="3.41565">
        <ele>139.05</ele>
        <time>2014-05-18T08:50:11Z</time>
      </trkpt>
      <trkpt lat="50.1128" lon="3.41537">
        <ele>139.05</ele>
        <time>2014-05-18T08:50:15Z</time>
      </trkpt>
      <trkpt lat="50.11228" lon="3.414">
        <ele>137.61</ele>
        <time>2014-05-18T08:50:30Z</time>
      </trkpt>
      <trkpt lat="50.11215" lon="3.4135">
        <ele>137.13</ele>
        <time>2014-05-18T08:50:35Z</time>
      </trkpt>
      <trkpt lat="50.11215" lon="3.41337">
        <ele>136.64</ele>
        <time>2014-05-18T08:50:36Z</time>
      </trkpt>
      <trkpt lat="50.11216" lon="3.41327">
        <ele>136.64</ele>
        <time>2014-05-18T08:50:37Z</time>
      </trkpt>
      <trkpt lat="50.11217" lon="3.41316">
        <ele>136.64</ele>
        <time>2014-05-18T08:50:38Z</time>
      </trkpt>
      <trkpt lat="50.11217" lon="3.41304">
        <ele>136.64</ele>
        <time>2014-05-18T08:50:39Z</time>
      </trkpt>
      <trkpt lat="50.11216" lon="3.41292">
        <ele>136.64</ele>
        <time>2014-05-18T08:50:40Z</time>
      </trkpt>
      <trkpt lat="50.11216" lon="3.41269">
        <ele>136.16</ele>
        <time>2014-05-18T08:50:42Z</time>
      </trkpt>
      <trkpt lat="50.11217" lon="3.41258">
        <ele>136.16</ele>
        <time>2014-05-18T08:50:43Z</time>
      </trkpt>
      <trkpt lat="50.11219" lon="3.41246">
        <ele>135.68</ele>
        <time>2014-05-18T08:50:44Z</time>
      </trkpt>
      <trkpt lat="50.11224" lon="3.41223">
        <ele>135.2</ele>
        <time>2014-05-18T08:50:46Z</time>
      </trkpt>
      <trkpt lat="50.11224" lon="3.4121">
        <ele>134.24</ele>
        <time>2014-05-18T08:50:47Z</time>
      </trkpt>
      <trkpt lat="50.11224" lon="3.41199">
        <ele>134.24</ele>
        <time>2014-05-18T08:50:48Z</time>
      </trkpt>
      <trkpt lat="50.11227" lon="3.41188">
        <ele>134.24</ele>
        <time>2014-05-18T08:50:49Z</time>
      </trkpt>
      <trkpt lat="50.1123" lon="3.41176">
        <ele>134.24</ele>
        <time>2014-05-18T08:50:50Z</time>
      </trkpt>
      <trkpt lat="50.11233" lon="3.41167">
        <ele>133.76</ele>
        <time>2014-05-18T08:50:51Z</time>
      </trkpt>
      <trkpt lat="50.11236" lon="3.41157">
        <ele>133.76</ele>
        <time>2014-05-18T08:50:52Z</time>
      </trkpt>
      <trkpt lat="50.11238" lon="3.41146">
        <ele>133.76</ele>
        <time>2014-05-18T08:50:53Z</time>
      </trkpt>
      <trkpt lat="50.11238" lon="3.41135">
        <ele>133.76</ele>
        <time>2014-05-18T08:50:54Z</time>
      </trkpt>
      <trkpt lat="50.11239" lon="3.41124">
        <ele>133.76</ele>
        <time>2014-05-18T08:50:55Z</time>
      </trkpt>
      <trkpt lat="50.11239" lon="3.41114">
        <ele>133.76</ele>
        <time>2014-05-18T08:50:56Z</time>
      </trkpt>
      <trkpt lat="50.11237" lon="3.41105">
        <ele>133.76</ele>
        <time>2014-05-18T08:50:57Z</time>
      </trkpt>
      <trkpt lat="50.11232" lon="3.41097">
        <ele>133.76</ele>
        <time>2014-05-18T08:50:58Z</time>
      </trkpt>
      <trkpt lat="50.11226" lon="3.41091">
        <ele>132.8</ele>
        <time>2014-05-18T08:50:59Z</time>
      </trkpt>
      <trkpt lat="50.11219" lon="3.41085">
        <ele>132.8</ele>
        <time>2014-05-18T08:51:00Z</time>
      </trkpt>
      <trkpt lat="50.11208" lon="3.41074">
        <ele>131.84</ele>
        <time>2014-05-18T08:51:02Z</time>
      </trkpt>
      <trkpt lat="50.11206" lon="3.41066">
        <ele>130.88</ele>
        <time>2014-05-18T08:51:03Z</time>
      </trkpt>
      <trkpt lat="50.11205" lon="3.41056">
        <ele>130.4</ele>
        <time>2014-05-18T08:51:04Z</time>
      </trkpt>
      <trkpt lat="50.11206" lon="3.41046">
        <ele>130.4</ele>
        <time>2014-05-18T08:51:05Z</time>
      </trkpt>
      <trkpt lat="50.11217" lon="3.40979">
        <ele>129.92</ele>
        <time>2014-05-18T08:51:12Z</time>
      </trkpt>
      <trkpt lat="50.1122" lon="3.40949">
        <ele>129.92</ele>
        <time>2014-05-18T08:51:15Z</time>
      </trkpt>
      <trkpt lat="50.11196" lon="3.40897">
        <ele>128.47</ele>
        <time>2014-05-18T08:51:21Z</time>
      </trkpt>
      <trkpt lat="50.11194" lon="3.40886">
        <ele>127.51</ele>
        <time>2014-05-18T08:51:22Z</time>
      </trkpt>
      <trkpt lat="50.11194" lon="3.40876">
        <ele>127.51</ele>
        <time>2014-05-18T08:51:23Z</time>
      </trkpt>
      <trkpt lat="50.11196" lon="3.40866">
        <ele>127.03</ele>
        <time>2014-05-18T08:51:24Z</time>
      </trkpt>
      <trkpt lat="50.11198" lon="3.40857">
        <ele>127.03</ele>
        <time>2014-05-18T08:51:25Z</time>
      </trkpt>
      <trkpt lat="50.11208" lon="3.40801">
        <ele>126.55</ele>
        <time>2014-05-18T08:51:31Z</time>
      </trkpt>
      <trkpt lat="50.1121" lon="3.40794">
        <ele>126.07</ele>
        <time>2014-05-18T08:51:32Z</time>
      </trkpt>
      <trkpt lat="50.11212" lon="3.40788">
        <ele>126.07</ele>
        <time>2014-05-18T08:51:33Z</time>
      </trkpt>
      <trkpt lat="50.11216" lon="3.40784">
        <ele>126.07</ele>
        <time>2014-05-18T08:51:34Z</time>
      </trkpt>
      <trkpt lat="50.11219" lon="3.40781">
        <ele>126.07</ele>
        <time>2014-05-18T08:51:35Z</time>
      </trkpt>
      <trkpt lat="50.11222" lon="3.40778">
        <ele>126.07</ele>
        <time>2014-05-18T08:51:36Z</time>
      </trkpt>
      <trkpt lat="50.11222" lon="3.40772">
        <ele>126.07</ele>
        <time>2014-05-18T08:51:37Z</time>
      </trkpt>
      <trkpt lat="50.1122" lon="3.40767">
        <ele>126.07</ele>
        <time>2014-05-18T08:51:38Z</time>
      </trkpt>
      <trkpt lat="50.11218" lon="3.40762">
        <ele>126.07</ele>
        <time>2014-05-18T08:51:39Z</time>
      </trkpt>
      <trkpt lat="50.11217" lon="3.40755">
        <ele>126.07</ele>
        <time>2014-05-18T08:51:40Z</time>
      </trkpt>
      <trkpt lat="50.11215" lon="3.40748">
        <ele>126.07</ele>
        <time>2014-05-18T08:51:41Z</time>
      </trkpt>
      <trkpt lat="50.11214" lon="3.4074">
        <ele>125.59</ele>
        <time>2014-05-18T08:51:42Z</time>
      </trkpt>
      <trkpt lat="50.11215" lon="3.40731">
        <ele>125.59</ele>
        <time>2014-05-18T08:51:43Z</time>
      </trkpt>
      <trkpt lat="50.11215" lon="3.40721">
        <ele>125.59</ele>
        <time>2014-05-18T08:51:44Z</time>
      </trkpt>
      <trkpt lat="50.11214" lon="3.40712">
        <ele>125.59</ele>
        <time>2014-05-18T08:51:45Z</time>
      </trkpt>
      <trkpt lat="50.11211" lon="3.40703">
        <ele>125.59</ele>
        <time>2014-05-18T08:51:46Z</time>
      </trkpt>
      <trkpt lat="50.11205" lon="3.40688">
        <ele>125.59</ele>
        <time>2014-05-18T08:51:48Z</time>
      </trkpt>
      <trkpt lat="50.1119" lon="3.40658">
        <ele>126.55</ele>
        <time>2014-05-18T08:51:52Z</time>
      </trkpt>
      <trkpt lat="50.11189" lon="3.40648">
        <ele>127.03</ele>
        <time>2014-05-18T08:51:53Z</time>
      </trkpt>
      <trkpt lat="50.1119" lon="3.40639">
        <ele>127.03</ele>
        <time>2014-05-18T08:51:54Z</time>
      </trkpt>
      <trkpt lat="50.11207" lon="3.4052">
        <ele>127.99</ele>
        <time>2014-05-18T08:52:07Z</time>
      </trkpt>
      <trkpt lat="50.11238" lon="3.40429">
        <ele>128.47</ele>
        <time>2014-05-18T08:52:19Z</time>
      </trkpt>
      <trkpt lat="50.11254" lon="3.4038">
        <ele>128.47</ele>
        <time>2014-05-18T08:52:25Z</time>
      </trkpt>
      <trkpt lat="50.11256" lon="3.40371">
        <ele>128.47</ele>
        <time>2014-05-18T08:52:26Z</time>
      </trkpt>
      <trkpt lat="50.11273" lon="3.4025">
        <ele>125.11</ele>
        <time>2014-05-18T08:52:38Z</time>
      </trkpt>
      <trkpt lat="50.1129" lon="3.40136">
        <ele>121.26</ele>
        <time>2014-05-18T08:52:48Z</time>
      </trkpt>
      <trkpt lat="50.11298" lon="3.40057">
        <ele>119.82</ele>
        <time>2014-05-18T08:52:55Z</time>
      </trkpt>
      <trkpt lat="50.11309" lon="3.39906">
        <ele>118.86</ele>
        <time>2014-05-18T08:53:10Z</time>
      </trkpt>
      <trkpt lat="50.11331" lon="3.39751">
        <ele>117.9</ele>
        <time>2014-05-18T08:53:27Z</time>
      </trkpt>
      <trkpt lat="50.1136" lon="3.39643">
        <ele>120.3</ele>
        <time>2014-05-18T08:53:41Z</time>
      </trkpt>
      <trkpt lat="50.11365" lon="3.39606">
        <ele>120.3</ele>
        <time>2014-05-18T08:53:46Z</time>
      </trkpt>
      <trkpt lat="50.11365" lon="3.39598">
        <ele>120.78</ele>
        <time>2014-05-18T08:53:47Z</time>
      </trkpt>
      <trkpt lat="50.11375" lon="3.39533">
        <ele>121.74</ele>
        <time>2014-05-18T08:53:55Z</time>
      </trkpt>
      <trkpt lat="50.11375" lon="3.39512">
        <ele>122.22</ele>
        <time>2014-05-18T08:53:58Z</time>
      </trkpt>
      <trkpt lat="50.11375" lon="3.39498">
        <ele>122.71</ele>
        <time>2014-05-18T08:54:00Z</time>
      </trkpt>
      <trkpt lat="50.11374" lon="3.39492">
        <ele>123.19</ele>
        <time>2014-05-18T08:54:01Z</time>
      </trkpt>
      <trkpt lat="50.11367" lon="3.39413">
        <ele>123.67</ele>
        <time>2014-05-18T08:54:12Z</time>
      </trkpt>
      <trkpt lat="50.11379" lon="3.39326">
        <ele>125.59</ele>
        <time>2014-05-18T08:54:25Z</time>
      </trkpt>
      <trkpt lat="50.11394" lon="3.39284">
        <ele>127.99</ele>
        <time>2014-05-18T08:54:36Z</time>
      </trkpt>
      <trkpt lat="50.11395" lon="3.3928">
        <ele>127.99</ele>
        <time>2014-05-18T08:54:37Z</time>
      </trkpt>
      <trkpt lat="50.11395" lon="3.39275">
        <ele>127.99</ele>
        <time>2014-05-18T08:54:38Z</time>
      </trkpt>
      <trkpt lat="50.11395" lon="3.3927">
        <ele>127.99</ele>
        <time>2014-05-18T08:54:39Z</time>
      </trkpt>
      <trkpt lat="50.11394" lon="3.39265">
        <ele>128.95</ele>
        <time>2014-05-18T08:54:40Z</time>
      </trkpt>
      <trkpt lat="50.11391" lon="3.39261">
        <ele>128.95</ele>
        <time>2014-05-18T08:54:41Z</time>
      </trkpt>
      <trkpt lat="50.11388" lon="3.39259">
        <ele>129.43</ele>
        <time>2014-05-18T08:54:42Z</time>
      </trkpt>
      <trkpt lat="50.11385" lon="3.39259">
        <ele>129.43</ele>
        <time>2014-05-18T08:54:43Z</time>
      </trkpt>
      <trkpt lat="50.11383" lon="3.39259">
        <ele>129.92</ele>
        <time>2014-05-18T08:54:44Z</time>
      </trkpt>
      <trkpt lat="50.11361" lon="3.39251">
        <ele>130.4</ele>
        <time>2014-05-18T08:54:51Z</time>
      </trkpt>
      <trkpt lat="50.11329" lon="3.39242">
        <ele>127.03</ele>
        <time>2014-05-18T08:54:57Z</time>
      </trkpt>
      <trkpt lat="50.11324" lon="3.3924">
        <ele>126.55</ele>
        <time>2014-05-18T08:54:58Z</time>
      </trkpt>
      <trkpt lat="50.11319" lon="3.39237">
        <ele>126.07</ele>
        <time>2014-05-18T08:54:59Z</time>
      </trkpt>
      <trkpt lat="50.11314" lon="3.39235">
        <ele>125.59</ele>
        <time>2014-05-18T08:55:00Z</time>
      </trkpt>
      <trkpt lat="50.11308" lon="3.39233">
        <ele>125.59</ele>
        <time>2014-05-18T08:55:01Z</time>
      </trkpt>
      <trkpt lat="50.11305" lon="3.39232">
        <ele>125.11</ele>
        <time>2014-05-18T08:55:02Z</time>
      </trkpt>
      <trkpt lat="50.11298" lon="3.39228">
        <ele>124.63</ele>
        <time>2014-05-18T08:55:09Z</time>
      </trkpt>
      <trkpt lat="50.11286" lon="3.3921">
        <ele>123.67</ele>
        <time>2014-05-18T08:55:14Z</time>
      </trkpt>
      <trkpt lat="50.11285" lon="3.39202">
        <ele>122.71</ele>
        <time>2014-05-18T08:55:15Z</time>
      </trkpt>
      <trkpt lat="50.11284" lon="3.39195">
        <ele>122.71</ele>
        <time>2014-05-18T08:55:16Z</time>
      </trkpt>
      <trkpt lat="50.11283" lon="3.39186">
        <ele>122.22</ele>
        <time>2014-05-18T08:55:17Z</time>
      </trkpt>
      <trkpt lat="50.11283" lon="3.39178">
        <ele>122.22</ele>
        <time>2014-05-18T08:55:18Z</time>
      </trkpt>
      <trkpt lat="50.11282" lon="3.39168">
        <ele>121.74</ele>
        <time>2014-05-18T08:55:19Z</time>
      </trkpt>
      <trkpt lat="50.11273" lon="3.39088">
        <ele>119.34</ele>
        <time>2014-05-18T08:55:29Z</time>
      </trkpt>
      <trkpt lat="50.11271" lon="3.39081">
        <ele>119.34</ele>
        <time>2014-05-18T08:55:30Z</time>
      </trkpt>
      <trkpt lat="50.11268" lon="3.39075">
        <ele>118.86</ele>
        <time>2014-05-18T08:55:31Z</time>
      </trkpt>
      <trkpt lat="50.11264" lon="3.39069">
        <ele>118.86</ele>
        <time>2014-05-18T08:55:32Z</time>
      </trkpt>
      <trkpt lat="50.11261" lon="3.39063">
        <ele>118.86</ele>
        <time>2014-05-18T08:55:33Z</time>
      </trkpt>
      <trkpt lat="50.11207" lon="3.38975">
        <ele>115.5</ele>
        <time>2014-05-18T08:55:46Z</time>
      </trkpt>
      <trkpt lat="50.11181" lon="3.38919">
        <ele>112.61</ele>
        <time>2014-05-18T08:55:52Z</time>
      </trkpt>
      <trkpt lat="50.11162" lon="3.38883">
        <ele>111.17</ele>
        <time>2014-05-18T08:55:56Z</time>
      </trkpt>
      <trkpt lat="50.11147" lon="3.3886">
        <ele>111.17</ele>
        <time>2014-05-18T08:55:59Z</time>
      </trkpt>
      <trkpt lat="50.11135" lon="3.38849">
        <ele>111.17</ele>
        <time>2014-05-18T08:56:01Z</time>
      </trkpt>
      <trkpt lat="50.1113" lon="3.38847">
        <ele>111.17</ele>
        <time>2014-05-18T08:56:02Z</time>
      </trkpt>
      <trkpt lat="50.11057" lon="3.38818">
        <ele>112.61</ele>
        <time>2014-05-18T08:56:15Z</time>
      </trkpt>
      <trkpt lat="50.11044" lon="3.38813">
        <ele>112.61</ele>
        <time>2014-05-18T08:56:18Z</time>
      </trkpt>
      <trkpt lat="50.1104" lon="3.38812">
        <ele>113.09</ele>
        <time>2014-05-18T08:56:19Z</time>
      </trkpt>
      <trkpt lat="50.11035" lon="3.38812">
        <ele>113.09</ele>
        <time>2014-05-18T08:56:20Z</time>
      </trkpt>
      <trkpt lat="50.11031" lon="3.38811">
        <ele>113.09</ele>
        <time>2014-05-18T08:56:21Z</time>
      </trkpt>
      <trkpt lat="50.11027" lon="3.3881">
        <ele>113.09</ele>
        <time>2014-05-18T08:56:22Z</time>
      </trkpt>
      <trkpt lat="50.11022" lon="3.38809">
        <ele>113.09</ele>
        <time>2014-05-18T08:56:23Z</time>
      </trkpt>
      <trkpt lat="50.11004" lon="3.388">
        <ele>113.57</ele>
        <time>2014-05-18T08:56:27Z</time>
      </trkpt>
      <trkpt lat="50.10962" lon="3.38778">
        <ele>116.94</ele>
        <time>2014-05-18T08:56:38Z</time>
      </trkpt>
      <trkpt lat="50.10954" lon="3.38774">
        <ele>117.42</ele>
        <time>2014-05-18T08:56:40Z</time>
      </trkpt>
      <trkpt lat="50.1095" lon="3.38773">
        <ele>117.42</ele>
        <time>2014-05-18T08:56:41Z</time>
      </trkpt>
      <trkpt lat="50.10946" lon="3.38771">
        <ele>117.42</ele>
        <time>2014-05-18T08:56:42Z</time>
      </trkpt>
      <trkpt lat="50.10912" lon="3.38755">
        <ele>118.86</ele>
        <time>2014-05-18T08:56:50Z</time>
      </trkpt>
      <trkpt lat="50.10909" lon="3.38753">
        <ele>118.86</ele>
        <time>2014-05-18T08:56:51Z</time>
      </trkpt>
      <trkpt lat="50.10874" lon="3.38738">
        <ele>119.82</ele>
        <time>2014-05-18T08:56:59Z</time>
      </trkpt>
      <trkpt lat="50.10815" lon="3.38715">
        <ele>122.22</ele>
        <time>2014-05-18T08:57:13Z</time>
      </trkpt>
      <trkpt lat="50.10811" lon="3.38713">
        <ele>122.22</ele>
        <time>2014-05-18T08:57:14Z</time>
      </trkpt>
      <trkpt lat="50.1075" lon="3.38687">
        <ele>123.67</ele>
        <time>2014-05-18T08:57:30Z</time>
      </trkpt>
      <trkpt lat="50.10692" lon="3.38673">
        <ele>123.67</ele>
        <time>2014-05-18T08:57:45Z</time>
      </trkpt>
      <trkpt lat="50.10635" lon="3.38647">
        <ele>124.63</ele>
        <time>2014-05-18T08:58:00Z</time>
      </trkpt>
      <trkpt lat="50.10578" lon="3.38609">
        <ele>127.99</ele>
        <time>2014-05-18T08:58:14Z</time>
      </trkpt>
      <trkpt lat="50.10543" lon="3.38585">
        <ele>129.43</ele>
        <time>2014-05-18T08:58:27Z</time>
      </trkpt>
      <trkpt lat="50.10498" lon="3.38569">
        <ele>130.4</ele>
        <time>2014-05-18T08:58:41Z</time>
      </trkpt>
      <trkpt lat="50.10458" lon="3.38555">
        <ele>130.4</ele>
        <time>2014-05-18T08:58:53Z</time>
      </trkpt>
      <trkpt lat="50.10401" lon="3.38532">
        <ele>131.36</ele>
        <time>2014-05-18T08:59:09Z</time>
      </trkpt>
      <trkpt lat="50.10397" lon="3.3853">
        <ele>131.36</ele>
        <time>2014-05-18T08:59:10Z</time>
      </trkpt>
      <trkpt lat="50.10393" lon="3.38528">
        <ele>131.36</ele>
        <time>2014-05-18T08:59:11Z</time>
      </trkpt>
      <trkpt lat="50.10322" lon="3.385">
        <ele>131.84</ele>
        <time>2014-05-18T08:59:29Z</time>
      </trkpt>
      <trkpt lat="50.10276" lon="3.3848">
        <ele>132.32</ele>
        <time>2014-05-18T08:59:40Z</time>
      </trkpt>
      <trkpt lat="50.10273" lon="3.38478">
        <ele>132.8</ele>
        <time>2014-05-18T08:59:41Z</time>
      </trkpt>
      <trkpt lat="50.10269" lon="3.38475">
        <ele>132.8</ele>
        <time>2014-05-18T08:59:42Z</time>
      </trkpt>
      <trkpt lat="50.10189" lon="3.38443">
        <ele>133.28</ele>
        <time>2014-05-18T09:00:00Z</time>
      </trkpt>
      <trkpt lat="50.10129" lon="3.38411">
        <ele>134.72</ele>
        <time>2014-05-18T09:00:14Z</time>
      </trkpt>
      <trkpt lat="50.10125" lon="3.38408">
        <ele>135.2</ele>
        <time>2014-05-18T09:00:15Z</time>
      </trkpt>
      <trkpt lat="50.10122" lon="3.38405">
        <ele>135.2</ele>
        <time>2014-05-18T09:00:16Z</time>
      </trkpt>
      <trkpt lat="50.10118" lon="3.38402">
        <ele>135.2</ele>
        <time>2014-05-18T09:00:17Z</time>
      </trkpt>
      <trkpt lat="50.10115" lon="3.38398">
        <ele>135.2</ele>
        <time>2014-05-18T09:00:18Z</time>
      </trkpt>
      <trkpt lat="50.10111" lon="3.38395">
        <ele>135.2</ele>
        <time>2014-05-18T09:00:19Z</time>
      </trkpt>
      <trkpt lat="50.10108" lon="3.38391">
        <ele>135.2</ele>
        <time>2014-05-18T09:00:20Z</time>
      </trkpt>
      <trkpt lat="50.10104" lon="3.38386">
        <ele>135.68</ele>
        <time>2014-05-18T09:00:21Z</time>
      </trkpt>
      <trkpt lat="50.10101" lon="3.38381">
        <ele>135.68</ele>
        <time>2014-05-18T09:00:22Z</time>
      </trkpt>
      <trkpt lat="50.10098" lon="3.38376">
        <ele>135.68</ele>
        <time>2014-05-18T09:00:23Z</time>
      </trkpt>
      <trkpt lat="50.10084" lon="3.38353">
        <ele>136.16</ele>
        <time>2014-05-18T09:00:27Z</time>
      </trkpt>
      <trkpt lat="50.10051" lon="3.38282">
        <ele>138.09</ele>
        <time>2014-05-18T09:00:37Z</time>
      </trkpt>
      <trkpt lat="50.10029" lon="3.38186">
        <ele>141.45</ele>
        <time>2014-05-18T09:00:48Z</time>
      </trkpt>
      <trkpt lat="50.10008" lon="3.38093">
        <ele>144.34</ele>
        <time>2014-05-18T09:00:59Z</time>
      </trkpt>
      <trkpt lat="50.09978" lon="3.37988">
        <ele>146.26</ele>
        <time>2014-05-18T09:01:13Z</time>
      </trkpt>
      <trkpt lat="50.09949" lon="3.3789">
        <ele>146.74</ele>
        <time>2014-05-18T09:01:29Z</time>
      </trkpt>
      <trkpt lat="50.09948" lon="3.37883">
        <ele>146.74</ele>
        <time>2014-05-18T09:01:30Z</time>
      </trkpt>
      <trkpt lat="50.09948" lon="3.37876">
        <ele>146.74</ele>
        <time>2014-05-18T09:01:31Z</time>
      </trkpt>
      <trkpt lat="50.09949" lon="3.37869">
        <ele>146.74</ele>
        <time>2014-05-18T09:01:32Z</time>
      </trkpt>
      <trkpt lat="50.0995" lon="3.37863">
        <ele>146.74</ele>
        <time>2014-05-18T09:01:33Z</time>
      </trkpt>
      <trkpt lat="50.09952" lon="3.37857">
        <ele>146.74</ele>
        <time>2014-05-18T09:01:34Z</time>
      </trkpt>
      <trkpt lat="50.09954" lon="3.37851">
        <ele>146.74</ele>
        <time>2014-05-18T09:01:35Z</time>
      </trkpt>
      <trkpt lat="50.0997" lon="3.37811">
        <ele>146.74</ele>
        <time>2014-05-18T09:01:42Z</time>
      </trkpt>
      <trkpt lat="50.09971" lon="3.37806">
        <ele>146.74</ele>
        <time>2014-05-18T09:01:43Z</time>
      </trkpt>
      <trkpt lat="50.09972" lon="3.37799">
        <ele>146.74</ele>
        <time>2014-05-18T09:01:44Z</time>
      </trkpt>
      <trkpt lat="50.09971" lon="3.37792">
        <ele>146.74</ele>
        <time>2014-05-18T09:01:45Z</time>
      </trkpt>
      <trkpt lat="50.09971" lon="3.37786">
        <ele>146.74</ele>
        <time>2014-05-18T09:01:46Z</time>
      </trkpt>
      <trkpt lat="50.09969" lon="3.37779">
        <ele>146.74</ele>
        <time>2014-05-18T09:01:47Z</time>
      </trkpt>
      <trkpt lat="50.09967" lon="3.37772">
        <ele>145.3</ele>
        <time>2014-05-18T09:01:48Z</time>
      </trkpt>
      <trkpt lat="50.09965" lon="3.37766">
        <ele>145.3</ele>
        <time>2014-05-18T09:01:49Z</time>
      </trkpt>
      <trkpt lat="50.09958" lon="3.37753">
        <ele>144.82</ele>
        <time>2014-05-18T09:01:51Z</time>
      </trkpt>
      <trkpt lat="50.09954" lon="3.37747">
        <ele>144.82</ele>
        <time>2014-05-18T09:01:52Z</time>
      </trkpt>
      <trkpt lat="50.0995" lon="3.37741">
        <ele>144.34</ele>
        <time>2014-05-18T09:01:53Z</time>
      </trkpt>
      <trkpt lat="50.09944" lon="3.37736">
        <ele>143.85</ele>
        <time>2014-05-18T09:01:54Z</time>
      </trkpt>
      <trkpt lat="50.09939" lon="3.37731">
        <ele>143.85</ele>
        <time>2014-05-18T09:01:55Z</time>
      </trkpt>
      <trkpt lat="50.09933" lon="3.37726">
        <ele>142.89</ele>
        <time>2014-05-18T09:01:56Z</time>
      </trkpt>
      <trkpt lat="50.09921" lon="3.37715">
        <ele>142.41</ele>
        <time>2014-05-18T09:01:58Z</time>
      </trkpt>
      <trkpt lat="50.09916" lon="3.37708">
        <ele>141.93</ele>
        <time>2014-05-18T09:01:59Z</time>
      </trkpt>
      <trkpt lat="50.09913" lon="3.37698">
        <ele>141.45</ele>
        <time>2014-05-18T09:02:00Z</time>
      </trkpt>
      <trkpt lat="50.09911" lon="3.37687">
        <ele>140.97</ele>
        <time>2014-05-18T09:02:01Z</time>
      </trkpt>
      <trkpt lat="50.0991" lon="3.37675">
        <ele>140.97</ele>
        <time>2014-05-18T09:02:02Z</time>
      </trkpt>
      <trkpt lat="50.09903" lon="3.37571">
        <ele>136.64</ele>
        <time>2014-05-18T09:02:10Z</time>
      </trkpt>
      <trkpt lat="50.09897" lon="3.37478">
        <ele>133.76</ele>
        <time>2014-05-18T09:02:19Z</time>
      </trkpt>
      <trkpt lat="50.09896" lon="3.37472">
        <ele>133.76</ele>
        <time>2014-05-18T09:02:21Z</time>
      </trkpt>
      <trkpt lat="50.09896" lon="3.3747">
        <ele>133.28</ele>
        <time>2014-05-18T09:02:22Z</time>
      </trkpt>
      <trkpt lat="50.09896" lon="3.37467">
        <ele>133.28</ele>
        <time>2014-05-18T09:02:23Z</time>
      </trkpt>
      <trkpt lat="50.09894" lon="3.37464">
        <ele>132.8</ele>
        <time>2014-05-18T09:02:24Z</time>
      </trkpt>
      <trkpt lat="50.09892" lon="3.3746">
        <ele>132.8</ele>
        <time>2014-05-18T09:02:25Z</time>
      </trkpt>
      <trkpt lat="50.09889" lon="3.37456">
        <ele>132.8</ele>
        <time>2014-05-18T09:02:26Z</time>
      </trkpt>
      <trkpt lat="50.09888" lon="3.37451">
        <ele>132.8</ele>
        <time>2014-05-18T09:02:27Z</time>
      </trkpt>
      <trkpt lat="50.09886" lon="3.37445">
        <ele>132.8</ele>
        <time>2014-05-18T09:02:28Z</time>
      </trkpt>
      <trkpt lat="50.09861" lon="3.3737">
        <ele>129.92</ele>
        <time>2014-05-18T09:02:37Z</time>
      </trkpt>
      <trkpt lat="50.09828" lon="3.3727">
        <ele>128.95</ele>
        <time>2014-05-18T09:02:49Z</time>
      </trkpt>
      <trkpt lat="50.09799" lon="3.37192">
        <ele>132.32</ele>
        <time>2014-05-18T09:03:01Z</time>
      </trkpt>
      <trkpt lat="50.09759" lon="3.3709">
        <ele>135.68</ele>
        <time>2014-05-18T09:03:17Z</time>
      </trkpt>
      <trkpt lat="50.09722" lon="3.37013">
        <ele>139.05</ele>
        <time>2014-05-18T09:03:30Z</time>
      </trkpt>
      <trkpt lat="50.0969" lon="3.36947">
        <ele>140.97</ele>
        <time>2014-05-18T09:03:44Z</time>
      </trkpt>
      <trkpt lat="50.09659" lon="3.3688">
        <ele>140.49</ele>
        <time>2014-05-18T09:03:58Z</time>
      </trkpt>
      <trkpt lat="50.09657" lon="3.36875">
        <ele>140.49</ele>
        <time>2014-05-18T09:03:59Z</time>
      </trkpt>
      <trkpt lat="50.09655" lon="3.3687">
        <ele>140.49</ele>
        <time>2014-05-18T09:04:00Z</time>
      </trkpt>
      <trkpt lat="50.09652" lon="3.36865">
        <ele>140.49</ele>
        <time>2014-05-18T09:04:01Z</time>
      </trkpt>
      <trkpt lat="50.0965" lon="3.3686">
        <ele>140.49</ele>
        <time>2014-05-18T09:04:02Z</time>
      </trkpt>
      <trkpt lat="50.09647" lon="3.36855">
        <ele>140.49</ele>
        <time>2014-05-18T09:04:03Z</time>
      </trkpt>
      <trkpt lat="50.09644" lon="3.36851">
        <ele>140.49</ele>
        <time>2014-05-18T09:04:04Z</time>
      </trkpt>
      <trkpt lat="50.09642" lon="3.36846">
        <ele>140.49</ele>
        <time>2014-05-18T09:04:05Z</time>
      </trkpt>
      <trkpt lat="50.0964" lon="3.3684">
        <ele>139.53</ele>
        <time>2014-05-18T09:04:06Z</time>
      </trkpt>
      <trkpt lat="50.09637" lon="3.36835">
        <ele>139.53</ele>
        <time>2014-05-18T09:04:07Z</time>
      </trkpt>
      <trkpt lat="50.09629" lon="3.36819">
        <ele>139.05</ele>
        <time>2014-05-18T09:04:10Z</time>
      </trkpt>
      <trkpt lat="50.09586" lon="3.36727">
        <ele>135.2</ele>
        <time>2014-05-18T09:04:23Z</time>
      </trkpt>
      <trkpt lat="50.09578" lon="3.36708">
        <ele>134.72</ele>
        <time>2014-05-18T09:04:25Z</time>
      </trkpt>
      <trkpt lat="50.09544" lon="3.36639">
        <ele>130.88</ele>
        <time>2014-05-18T09:04:32Z</time>
      </trkpt>
      <trkpt lat="50.09516" lon="3.36584">
        <ele>128.47</ele>
        <time>2014-05-18T09:04:37Z</time>
      </trkpt>
      <trkpt lat="50.09499" lon="3.36549">
        <ele>127.03</ele>
        <time>2014-05-18T09:04:40Z</time>
      </trkpt>
      <trkpt lat="50.09488" lon="3.36524">
        <ele>125.59</ele>
        <time>2014-05-18T09:04:42Z</time>
      </trkpt>
      <trkpt lat="50.09464" lon="3.36475">
        <ele>122.71</ele>
        <time>2014-05-18T09:04:46Z</time>
      </trkpt>
      <trkpt lat="50.09458" lon="3.36463">
        <ele>122.22</ele>
        <time>2014-05-18T09:04:47Z</time>
      </trkpt>
      <trkpt lat="50.09446" lon="3.36439">
        <ele>121.26</ele>
        <time>2014-05-18T09:04:49Z</time>
      </trkpt>
      <trkpt lat="50.09417" lon="3.36376">
        <ele>117.9</ele>
        <time>2014-05-18T09:04:57Z</time>
      </trkpt>
      <trkpt lat="50.09413" lon="3.36371">
        <ele>117.9</ele>
        <time>2014-05-18T09:04:58Z</time>
      </trkpt>
      <trkpt lat="50.09408" lon="3.3637">
        <ele>117.42</ele>
        <time>2014-05-18T09:04:59Z</time>
      </trkpt>
      <trkpt lat="50.09404" lon="3.3637">
        <ele>116.94</ele>
        <time>2014-05-18T09:05:00Z</time>
      </trkpt>
      <trkpt lat="50.09401" lon="3.36373">
        <ele>117.42</ele>
        <time>2014-05-18T09:05:01Z</time>
      </trkpt>
      <trkpt lat="50.09397" lon="3.36376">
        <ele>116.94</ele>
        <time>2014-05-18T09:05:02Z</time>
      </trkpt>
      <trkpt lat="50.09363" lon="3.36411">
        <ele>117.42</ele>
        <time>2014-05-18T09:05:13Z</time>
      </trkpt>
      <trkpt lat="50.0936" lon="3.36412">
        <ele>117.42</ele>
        <time>2014-05-18T09:05:14Z</time>
      </trkpt>
      <trkpt lat="50.09356" lon="3.36411">
        <ele>117.42</ele>
        <time>2014-05-18T09:05:15Z</time>
      </trkpt>
      <trkpt lat="50.09354" lon="3.36409">
        <ele>117.42</ele>
        <time>2014-05-18T09:05:16Z</time>
      </trkpt>
      <trkpt lat="50.09351" lon="3.36406">
        <ele>117.42</ele>
        <time>2014-05-18T09:05:17Z</time>
      </trkpt>
      <trkpt lat="50.09348" lon="3.36403">
        <ele>117.42</ele>
        <time>2014-05-18T09:05:18Z</time>
      </trkpt>
      <trkpt lat="50.09331" lon="3.36388">
        <ele>116.46</ele>
        <time>2014-05-18T09:05:23Z</time>
      </trkpt>
      <trkpt lat="50.09328" lon="3.36384">
        <ele>116.46</ele>
        <time>2014-05-18T09:05:24Z</time>
      </trkpt>
      <trkpt lat="50.09313" lon="3.36368">
        <ele>115.01</ele>
        <time>2014-05-18T09:05:28Z</time>
      </trkpt>
      <trkpt lat="50.0931" lon="3.36363">
        <ele>115.01</ele>
        <time>2014-05-18T09:05:29Z</time>
      </trkpt>
      <trkpt lat="50.09307" lon="3.36357">
        <ele>114.53</ele>
        <time>2014-05-18T09:05:30Z</time>
      </trkpt>
      <trkpt lat="50.09265" lon="3.36269">
        <ele>112.61</ele>
        <time>2014-05-18T09:05:46Z</time>
      </trkpt>
      <trkpt lat="50.09266" lon="3.36265">
        <ele>112.61</ele>
        <time>2014-05-18T09:05:54Z</time>
      </trkpt>
      <trkpt lat="50.09292" lon="3.36242">
        <ele>112.13</ele>
        <time>2014-05-18T09:06:05Z</time>
      </trkpt>
      <trkpt lat="50.09329" lon="3.36235">
        <ele>111.65</ele>
        <time>2014-05-18T09:06:15Z</time>
      </trkpt>
      <trkpt lat="50.094" lon="3.36257">
        <ele>110.69</ele>
        <time>2014-05-18T09:06:31Z</time>
      </trkpt>
      <trkpt lat="50.09405" lon="3.36257">
        <ele>110.69</ele>
        <time>2014-05-18T09:06:32Z</time>
      </trkpt>
      <trkpt lat="50.09408" lon="3.36256">
        <ele>110.69</ele>
        <time>2014-05-18T09:06:33Z</time>
      </trkpt>
      <trkpt lat="50.09412" lon="3.36254">
        <ele>110.69</ele>
        <time>2014-05-18T09:06:34Z</time>
      </trkpt>
      <trkpt lat="50.09416" lon="3.36251">
        <ele>110.69</ele>
        <time>2014-05-18T09:06:35Z</time>
      </trkpt>
      <trkpt lat="50.0944" lon="3.36232">
        <ele>110.21</ele>
        <time>2014-05-18T09:06:43Z</time>
      </trkpt>
      <trkpt lat="50.09441" lon="3.36229">
        <ele>110.21</ele>
        <time>2014-05-18T09:06:44Z</time>
      </trkpt>
      <trkpt lat="50.09441" lon="3.36226">
        <ele>110.21</ele>
        <time>2014-05-18T09:06:45Z</time>
      </trkpt>
      <trkpt lat="50.09441" lon="3.36223">
        <ele>110.21</ele>
        <time>2014-05-18T09:06:46Z</time>
      </trkpt>
      <trkpt lat="50.0944" lon="3.3622">
        <ele>110.21</ele>
        <time>2014-05-18T09:06:47Z</time>
      </trkpt>
      <trkpt lat="50.09419" lon="3.36164">
        <ele>112.13</ele>
        <time>2014-05-18T09:07:02Z</time>
      </trkpt>
      <trkpt lat="50.094" lon="3.36113">
        <ele>114.05</ele>
        <time>2014-05-18T09:07:15Z</time>
      </trkpt>
      <trkpt lat="50.09373" lon="3.36042">
        <ele>115.98</ele>
        <time>2014-05-18T09:07:32Z</time>
      </trkpt>
      <trkpt lat="50.09351" lon="3.35986">
        <ele>116.94</ele>
        <time>2014-05-18T09:07:46Z</time>
      </trkpt>
      <trkpt lat="50.09326" lon="3.3592">
        <ele>119.34</ele>
        <time>2014-05-18T09:08:01Z</time>
      </trkpt>
      <trkpt lat="50.09301" lon="3.35857">
        <ele>119.82</ele>
        <time>2014-05-18T09:08:17Z</time>
      </trkpt>
      <trkpt lat="50.09278" lon="3.35796">
        <ele>122.22</ele>
        <time>2014-05-18T09:08:33Z</time>
      </trkpt>
      <trkpt lat="50.09253" lon="3.3573">
        <ele>123.67</ele>
        <time>2014-05-18T09:08:50Z</time>
      </trkpt>
      <trkpt lat="50.09236" lon="3.3568">
        <ele>125.11</ele>
        <time>2014-05-18T09:09:05Z</time>
      </trkpt>
      <trkpt lat="50.09217" lon="3.35626">
        <ele>126.55</ele>
        <time>2014-05-18T09:09:20Z</time>
      </trkpt>
      <trkpt lat="50.09195" lon="3.35565">
        <ele>127.99</ele>
        <time>2014-05-18T09:09:35Z</time>
      </trkpt>
      <trkpt lat="50.09169" lon="3.35492">
        <ele>129.43</ele>
        <time>2014-05-18T09:09:53Z</time>
      </trkpt>
      <trkpt lat="50.09143" lon="3.3542">
        <ele>130.88</ele>
        <time>2014-05-18T09:10:11Z</time>
      </trkpt>
      <trkpt lat="50.09123" lon="3.35361">
        <ele>131.84</ele>
        <time>2014-05-18T09:10:26Z</time>
      </trkpt>
      <trkpt lat="50.09101" lon="3.35295">
        <ele>133.28</ele>
        <time>2014-05-18T09:10:42Z</time>
      </trkpt>
      <trkpt lat="50.09081" lon="3.3524">
        <ele>133.76</ele>
        <time>2014-05-18T09:10:55Z</time>
      </trkpt>
      <trkpt lat="50.0906" lon="3.35181">
        <ele>134.24</ele>
        <time>2014-05-18T09:11:10Z</time>
      </trkpt>
      <trkpt lat="50.09035" lon="3.35112">
        <ele>134.72</ele>
        <time>2014-05-18T09:11:26Z</time>
      </trkpt>
      <trkpt lat="50.09019" lon="3.35066">
        <ele>136.16</ele>
        <time>2014-05-18T09:11:38Z</time>
      </trkpt>
      <trkpt lat="50.08996" lon="3.34996">
        <ele>137.13</ele>
        <time>2014-05-18T09:11:54Z</time>
      </trkpt>
      <trkpt lat="50.08973" lon="3.34927">
        <ele>137.61</ele>
        <time>2014-05-18T09:12:10Z</time>
      </trkpt>
      <trkpt lat="50.0895" lon="3.34861">
        <ele>138.09</ele>
        <time>2014-05-18T09:12:25Z</time>
      </trkpt>
      <trkpt lat="50.08936" lon="3.3482">
        <ele>138.09</ele>
        <time>2014-05-18T09:12:35Z</time>
      </trkpt>
      <trkpt lat="50.08908" lon="3.34741">
        <ele>136.64</ele>
        <time>2014-05-18T09:12:52Z</time>
      </trkpt>
      <trkpt lat="50.08891" lon="3.34701">
        <ele>136.16</ele>
        <time>2014-05-18T09:13:05Z</time>
      </trkpt>
      <trkpt lat="50.08889" lon="3.347">
        <ele>136.16</ele>
        <time>2014-05-18T09:13:06Z</time>
      </trkpt>
      <trkpt lat="50.08887" lon="3.347">
        <ele>136.16</ele>
        <time>2014-05-18T09:13:07Z</time>
      </trkpt>
      <trkpt lat="50.08886" lon="3.34701">
        <ele>136.16</ele>
        <time>2014-05-18T09:13:08Z</time>
      </trkpt>
      <trkpt lat="50.08852" lon="3.3473">
        <ele>138.57</ele>
        <time>2014-05-18T09:13:20Z</time>
      </trkpt>
      <trkpt lat="50.08814" lon="3.34762">
        <ele>139.53</ele>
        <time>2014-05-18T09:13:33Z</time>
      </trkpt>
      <trkpt lat="50.08752" lon="3.34811">
        <ele>141.93</ele>
        <time>2014-05-18T09:13:51Z</time>
      </trkpt>
      <trkpt lat="50.08726" lon="3.34826">
        <ele>142.41</ele>
        <time>2014-05-18T09:13:58Z</time>
      </trkpt>
      <trkpt lat="50.08688" lon="3.34847">
        <ele>143.37</ele>
        <time>2014-05-18T09:14:08Z</time>
      </trkpt>
      <trkpt lat="50.0867" lon="3.34856">
        <ele>143.37</ele>
        <time>2014-05-18T09:14:12Z</time>
      </trkpt>
      <trkpt lat="50.08666" lon="3.34858">
        <ele>143.85</ele>
        <time>2014-05-18T09:14:13Z</time>
      </trkpt>
      <trkpt lat="50.08661" lon="3.34859">
        <ele>143.85</ele>
        <time>2014-05-18T09:14:14Z</time>
      </trkpt>
      <trkpt lat="50.08656" lon="3.34862">
        <ele>143.85</ele>
        <time>2014-05-18T09:14:15Z</time>
      </trkpt>
      <trkpt lat="50.08651" lon="3.34865">
        <ele>143.85</ele>
        <time>2014-05-18T09:14:16Z</time>
      </trkpt>
      <trkpt lat="50.08586" lon="3.3491">
        <ele>144.82</ele>
        <time>2014-05-18T09:14:33Z</time>
      </trkpt>
      <trkpt lat="50.08551" lon="3.34932">
        <ele>142.89</ele>
        <time>2014-05-18T09:14:41Z</time>
      </trkpt>
      <trkpt lat="50.08493" lon="3.34967">
        <ele>139.53</ele>
        <time>2014-05-18T09:14:51Z</time>
      </trkpt>
      <trkpt lat="50.08469" lon="3.3498">
        <ele>139.53</ele>
        <time>2014-05-18T09:14:55Z</time>
      </trkpt>
      <trkpt lat="50.08462" lon="3.3498">
        <ele>139.05</ele>
        <time>2014-05-18T09:14:56Z</time>
      </trkpt>
      <trkpt lat="50.08456" lon="3.3498">
        <ele>139.05</ele>
        <time>2014-05-18T09:14:57Z</time>
      </trkpt>
      <trkpt lat="50.08449" lon="3.34978">
        <ele>139.05</ele>
        <time>2014-05-18T09:14:58Z</time>
      </trkpt>
      <trkpt lat="50.08443" lon="3.34975">
        <ele>138.57</ele>
        <time>2014-05-18T09:14:59Z</time>
      </trkpt>
      <trkpt lat="50.08437" lon="3.34971">
        <ele>138.09</ele>
        <time>2014-05-18T09:15:00Z</time>
      </trkpt>
      <trkpt lat="50.08354" lon="3.34918">
        <ele>136.16</ele>
        <time>2014-05-18T09:15:14Z</time>
      </trkpt>
      <trkpt lat="50.08349" lon="3.34917">
        <ele>136.16</ele>
        <time>2014-05-18T09:15:15Z</time>
      </trkpt>
      <trkpt lat="50.08306" lon="3.349">
        <ele>136.16</ele>
        <time>2014-05-18T09:15:24Z</time>
      </trkpt>
      <trkpt lat="50.08282" lon="3.34881">
        <ele>137.13</ele>
        <time>2014-05-18T09:15:30Z</time>
      </trkpt>
      <trkpt lat="50.08271" lon="3.34842">
        <ele>139.53</ele>
        <time>2014-05-18T09:15:38Z</time>
      </trkpt>
      <trkpt lat="50.08275" lon="3.34819">
        <ele>140.01</ele>
        <time>2014-05-18T09:15:41Z</time>
      </trkpt>
      <trkpt lat="50.08276" lon="3.34811">
        <ele>140.01</ele>
        <time>2014-05-18T09:15:42Z</time>
      </trkpt>
      <trkpt lat="50.08274" lon="3.34752">
        <ele>140.97</ele>
        <time>2014-05-18T09:15:49Z</time>
      </trkpt>
      <trkpt lat="50.08255" lon="3.34653">
        <ele>142.89</ele>
        <time>2014-05-18T09:16:02Z</time>
      </trkpt>
      <trkpt lat="50.08252" lon="3.34647">
        <ele>143.37</ele>
        <time>2014-05-18T09:16:03Z</time>
      </trkpt>
      <trkpt lat="50.0825" lon="3.34642">
        <ele>143.37</ele>
        <time>2014-05-18T09:16:04Z</time>
      </trkpt>
      <trkpt lat="50.08246" lon="3.34637">
        <ele>143.85</ele>
        <time>2014-05-18T09:16:05Z</time>
      </trkpt>
      <trkpt lat="50.08242" lon="3.34635">
        <ele>143.85</ele>
        <time>2014-05-18T09:16:06Z</time>
      </trkpt>
      <trkpt lat="50.08238" lon="3.34633">
        <ele>144.34</ele>
        <time>2014-05-18T09:16:07Z</time>
      </trkpt>
      <trkpt lat="50.08233" lon="3.34632">
        <ele>144.34</ele>
        <time>2014-05-18T09:16:08Z</time>
      </trkpt>
      <trkpt lat="50.08229" lon="3.3463">
        <ele>145.3</ele>
        <time>2014-05-18T09:16:09Z</time>
      </trkpt>
      <trkpt lat="50.08226" lon="3.34626">
        <ele>145.3</ele>
        <time>2014-05-18T09:16:10Z</time>
      </trkpt>
      <trkpt lat="50.08225" lon="3.34619">
        <ele>145.3</ele>
        <time>2014-05-18T09:16:11Z</time>
      </trkpt>
      <trkpt lat="50.08225" lon="3.34614">
        <ele>145.78</ele>
        <time>2014-05-18T09:16:12Z</time>
      </trkpt>
      <trkpt lat="50.08226" lon="3.34608">
        <ele>145.78</ele>
        <time>2014-05-18T09:16:13Z</time>
      </trkpt>
      <trkpt lat="50.08226" lon="3.34602">
        <ele>145.78</ele>
        <time>2014-05-18T09:16:14Z</time>
      </trkpt>
      <trkpt lat="50.08225" lon="3.34595">
        <ele>145.78</ele>
        <time>2014-05-18T09:16:15Z</time>
      </trkpt>
      <trkpt lat="50.08225" lon="3.34589">
        <ele>145.78</ele>
        <time>2014-05-18T09:16:16Z</time>
      </trkpt>
      <trkpt lat="50.08224" lon="3.34582">
        <ele>145.78</ele>
        <time>2014-05-18T09:16:17Z</time>
      </trkpt>
      <trkpt lat="50.08222" lon="3.34569">
        <ele>146.26</ele>
        <time>2014-05-18T09:16:19Z</time>
      </trkpt>
      <trkpt lat="50.08221" lon="3.34563">
        <ele>146.26</ele>
        <time>2014-05-18T09:16:20Z</time>
      </trkpt>
      <trkpt lat="50.0822" lon="3.34557">
        <ele>146.26</ele>
        <time>2014-05-18T09:16:21Z</time>
      </trkpt>
      <trkpt lat="50.08218" lon="3.34544">
        <ele>146.74</ele>
        <time>2014-05-18T09:16:23Z</time>
      </trkpt>
      <trkpt lat="50.08217" lon="3.34537">
        <ele>146.74</ele>
        <time>2014-05-18T09:16:24Z</time>
      </trkpt>
      <trkpt lat="50.08214" lon="3.34457">
        <ele>147.7</ele>
        <time>2014-05-18T09:16:39Z</time>
      </trkpt>
      <trkpt lat="50.08211" lon="3.34415">
        <ele>146.26</ele>
        <time>2014-05-18T09:16:46Z</time>
      </trkpt>
      <trkpt lat="50.08208" lon="3.34308">
        <ele>144.82</ele>
        <time>2014-05-18T09:17:00Z</time>
      </trkpt>
      <trkpt lat="50.08201" lon="3.34161">
        <ele>144.34</ele>
        <time>2014-05-18T09:17:17Z</time>
      </trkpt>
      <trkpt lat="50.08194" lon="3.34006">
        <ele>144.34</ele>
        <time>2014-05-18T09:17:34Z</time>
      </trkpt>
      <trkpt lat="50.08188" lon="3.33886">
        <ele>143.85</ele>
        <time>2014-05-18T09:17:49Z</time>
      </trkpt>
      <trkpt lat="50.08183" lon="3.33861">
        <ele>143.85</ele>
        <time>2014-05-18T09:17:53Z</time>
      </trkpt>
      <trkpt lat="50.0818" lon="3.33857">
        <ele>143.85</ele>
        <time>2014-05-18T09:17:54Z</time>
      </trkpt>
      <trkpt lat="50.08176" lon="3.33855">
        <ele>143.85</ele>
        <time>2014-05-18T09:17:55Z</time>
      </trkpt>
      <trkpt lat="50.08172" lon="3.33855">
        <ele>143.85</ele>
        <time>2014-05-18T09:17:56Z</time>
      </trkpt>
      <trkpt lat="50.08167" lon="3.33856">
        <ele>143.85</ele>
        <time>2014-05-18T09:17:57Z</time>
      </trkpt>
      <trkpt lat="50.08163" lon="3.33858">
        <ele>143.85</ele>
        <time>2014-05-18T09:17:58Z</time>
      </trkpt>
      <trkpt lat="50.08073" lon="3.3388">
        <ele>140.49</ele>
        <time>2014-05-18T09:18:13Z</time>
      </trkpt>
      <trkpt lat="50.07995" lon="3.33898">
        <ele>139.05</ele>
        <time>2014-05-18T09:18:24Z</time>
      </trkpt>
      <trkpt lat="50.07988" lon="3.339">
        <ele>139.05</ele>
        <time>2014-05-18T09:18:25Z</time>
      </trkpt>
      <trkpt lat="50.07959" lon="3.33906">
        <ele>140.49</ele>
        <time>2014-05-18T09:18:30Z</time>
      </trkpt>
      <trkpt lat="50.07899" lon="3.33919">
        <ele>141.45</ele>
        <time>2014-05-18T09:18:41Z</time>
      </trkpt>
      <trkpt lat="50.07894" lon="3.33921">
        <ele>141.45</ele>
        <time>2014-05-18T09:18:42Z</time>
      </trkpt>
      <trkpt lat="50.07843" lon="3.33932">
        <ele>140.01</ele>
        <time>2014-05-18T09:18:52Z</time>
      </trkpt>
      <trkpt lat="50.07788" lon="3.33945">
        <ele>136.64</ele>
        <time>2014-05-18T09:19:01Z</time>
      </trkpt>
      <trkpt lat="50.07687" lon="3.33969">
        <ele>133.76</ele>
        <time>2014-05-18T09:19:15Z</time>
      </trkpt>
      <trkpt lat="50.0767" lon="3.33973">
        <ele>133.76</ele>
        <time>2014-05-18T09:19:18Z</time>
      </trkpt>
      <trkpt lat="50.07665" lon="3.33972">
        <ele>133.76</ele>
        <time>2014-05-18T09:19:19Z</time>
      </trkpt>
      <trkpt lat="50.07661" lon="3.3397">
        <ele>133.76</ele>
        <time>2014-05-18T09:19:20Z</time>
      </trkpt>
      <trkpt lat="50.07657" lon="3.33967">
        <ele>134.24</ele>
        <time>2014-05-18T09:19:21Z</time>
      </trkpt>
      <trkpt lat="50.07654" lon="3.33961">
        <ele>133.76</ele>
        <time>2014-05-18T09:19:22Z</time>
      </trkpt>
      <trkpt lat="50.07651" lon="3.33955">
        <ele>133.76</ele>
        <time>2014-05-18T09:19:23Z</time>
      </trkpt>
      <trkpt lat="50.07648" lon="3.33947">
        <ele>133.76</ele>
        <time>2014-05-18T09:19:24Z</time>
      </trkpt>
      <trkpt lat="50.0763" lon="3.33907">
        <ele>128.95</ele>
        <time>2014-05-18T09:19:29Z</time>
      </trkpt>
      <trkpt lat="50.07625" lon="3.33898">
        <ele>132.8</ele>
        <time>2014-05-18T09:19:30Z</time>
      </trkpt>
      <trkpt lat="50.07569" lon="3.33773">
        <ele>130.88</ele>
        <time>2014-05-18T09:19:45Z</time>
      </trkpt>
      <trkpt lat="50.07566" lon="3.33766">
        <ele>130.88</ele>
        <time>2014-05-18T09:19:46Z</time>
      </trkpt>
      <trkpt lat="50.07561" lon="3.33762">
        <ele>130.88</ele>
        <time>2014-05-18T09:19:47Z</time>
      </trkpt>
      <trkpt lat="50.07555" lon="3.33762">
        <ele>130.88</ele>
        <time>2014-05-18T09:19:48Z</time>
      </trkpt>
      <trkpt lat="50.0755" lon="3.33766">
        <ele>130.88</ele>
        <time>2014-05-18T09:19:49Z</time>
      </trkpt>
      <trkpt lat="50.07544" lon="3.33771">
        <ele>130.88</ele>
        <time>2014-05-18T09:19:50Z</time>
      </trkpt>
      <trkpt lat="50.0754" lon="3.33778">
        <ele>130.88</ele>
        <time>2014-05-18T09:19:51Z</time>
      </trkpt>
      <trkpt lat="50.07535" lon="3.33784">
        <ele>130.88</ele>
        <time>2014-05-18T09:19:52Z</time>
      </trkpt>
      <trkpt lat="50.0753" lon="3.33791">
        <ele>130.88</ele>
        <time>2014-05-18T09:19:53Z</time>
      </trkpt>
      <trkpt lat="50.07526" lon="3.33797">
        <ele>130.4</ele>
        <time>2014-05-18T09:19:54Z</time>
      </trkpt>
      <trkpt lat="50.07468" lon="3.33891">
        <ele>131.36</ele>
        <time>2014-05-18T09:20:09Z</time>
      </trkpt>
      <trkpt lat="50.07421" lon="3.33989">
        <ele>133.28</ele>
        <time>2014-05-18T09:20:25Z</time>
      </trkpt>
      <trkpt lat="50.07416" lon="3.3401">
        <ele>133.28</ele>
        <time>2014-05-18T09:20:30Z</time>
      </trkpt>
      <trkpt lat="50.07418" lon="3.34013">
        <ele>133.76</ele>
        <time>2014-05-18T09:20:31Z</time>
      </trkpt>
      <trkpt lat="50.07421" lon="3.34014">
        <ele>133.76</ele>
        <time>2014-05-18T09:20:32Z</time>
      </trkpt>
      <trkpt lat="50.07424" lon="3.34016">
        <ele>133.76</ele>
        <time>2014-05-18T09:20:33Z</time>
      </trkpt>
      <trkpt lat="50.07427" lon="3.34019">
        <ele>133.76</ele>
        <time>2014-05-18T09:20:34Z</time>
      </trkpt>
      <trkpt lat="50.0743" lon="3.34022">
        <ele>133.76</ele>
        <time>2014-05-18T09:20:35Z</time>
      </trkpt>
      <trkpt lat="50.07433" lon="3.34027">
        <ele>134.24</ele>
        <time>2014-05-18T09:20:36Z</time>
      </trkpt>
      <trkpt lat="50.07435" lon="3.34031">
        <ele>134.24</ele>
        <time>2014-05-18T09:20:37Z</time>
      </trkpt>
      <trkpt lat="50.07436" lon="3.34035">
        <ele>134.24</ele>
        <time>2014-05-18T09:20:38Z</time>
      </trkpt>
      <trkpt lat="50.07438" lon="3.3404">
        <ele>134.24</ele>
        <time>2014-05-18T09:20:39Z</time>
      </trkpt>
      <trkpt lat="50.07472" lon="3.34117">
        <ele>136.16</ele>
        <time>2014-05-18T09:20:57Z</time>
      </trkpt>
      <trkpt lat="50.07511" lon="3.34201">
        <ele>138.57</ele>
        <time>2014-05-18T09:21:15Z</time>
      </trkpt>
      <trkpt lat="50.07523" lon="3.34264">
        <ele>140.49</ele>
        <time>2014-05-18T09:21:30Z</time>
      </trkpt>
      <trkpt lat="50.07526" lon="3.34314">
        <ele>140.97</ele>
        <time>2014-05-18T09:21:41Z</time>
      </trkpt>
      <trkpt lat="50.0756" lon="3.34345">
        <ele>141.93</ele>
        <time>2014-05-18T09:21:53Z</time>
      </trkpt>
      <trkpt lat="50.0762" lon="3.34367">
        <ele>142.89</ele>
        <time>2014-05-18T09:22:11Z</time>
      </trkpt>
      <trkpt lat="50.07664" lon="3.34387">
        <ele>143.85</ele>
        <time>2014-05-18T09:22:24Z</time>
      </trkpt>
      <trkpt lat="50.07712" lon="3.34416">
        <ele>144.82</ele>
        <time>2014-05-18T09:22:38Z</time>
      </trkpt>
      <trkpt lat="50.07749" lon="3.34443">
        <ele>145.78</ele>
        <time>2014-05-18T09:22:49Z</time>
      </trkpt>
      <trkpt lat="50.07797" lon="3.34487">
        <ele>146.26</ele>
        <time>2014-05-18T09:23:04Z</time>
      </trkpt>
      <trkpt lat="50.07846" lon="3.34533">
        <ele>147.22</ele>
        <time>2014-05-18T09:23:19Z</time>
      </trkpt>
      <trkpt lat="50.07905" lon="3.34579">
        <ele>148.18</ele>
        <time>2014-05-18T09:23:35Z</time>
      </trkpt>
      <trkpt lat="50.07965" lon="3.34617">
        <ele>148.66</ele>
        <time>2014-05-18T09:23:50Z</time>
      </trkpt>
      <trkpt lat="50.08001" lon="3.34636">
        <ele>148.66</ele>
        <time>2014-05-18T09:24:02Z</time>
      </trkpt>
      <trkpt lat="50.0803" lon="3.34672">
        <ele>148.66</ele>
        <time>2014-05-18T09:24:15Z</time>
      </trkpt>
      <trkpt lat="50.08031" lon="3.34676">
        <ele>148.66</ele>
        <time>2014-05-18T09:24:24Z</time>
      </trkpt>
    </trkseg>
  </trk>
</gpx>